<?xml version="1.0" encoding="UTF-8" standalone="no" ?><gpx xmlns="http://www.topografix.com/GPX/1/1" xmlns:gpxx="http://www.garmin.com/xmlschemas/GpxExtensions/v3" xmlns:wptx1="http://www.garmin.com/xmlschemas/WaypointExtension/v1" xmlns:gpxtpx="http://www.garmin.com/xmlschemas/TrackPointExtension/v1" creator="GuideVTT.com" version="1.1" xmlns:xsi="http://www.w3.org/2001/XMLSchema-instance" xsi:schemaLocation="http://www.topografix.com/GPX/1/1 http://www.topografix.com/GPX/1/1/gpx.xsd http://www.garmin.com/xmlschemas/GpxExtensions/v3 http://www8.garmin.com/xmlschemas/GpxExtensionsv3.xsd http://www.garmin.com/xmlschemas/WaypointExtension/v1 http://www8.garmin.com/xmlschemas/WaypointExtensionv1.xsd http://www.garmin.com/xmlschemas/TrackPointExtension/v1 http://www.garmin.com/xmlschemas/TrackPointExtensionv1.xsd">
<metadata><link href="http://www.garmin.com"><text>Garmin International</text></link><time>2013-06-22T15:13:50Z</time></metadata>
<trk><name>charmey-vounetz.gpx</name><extensions><gpxx:TrackExtension><gpxx:DisplayColor>Cyan</gpxx:DisplayColor></gpxx:TrackExtension></extensions><trkseg>
<trkpt lat="46.62174400" lon="7.15867600"><ele></ele><time>2014-4-20T17:51:39Z</time></trkpt>
<trkpt lat="46.62177400" lon="7.15869900"><ele></ele><time>2014-4-20T17:51:42Z</time></trkpt>
<trkpt lat="46.62177600" lon="7.15869600"><ele></ele><time>2014-4-20T17:51:45Z</time></trkpt>
<trkpt lat="46.62170600" lon="7.15878900"><ele></ele><time>2014-4-20T17:51:48Z</time></trkpt>
<trkpt lat="46.62166500" lon="7.15880700"><ele></ele><time>2014-4-20T17:51:51Z</time></trkpt>
<trkpt lat="46.62155300" lon="7.15873200"><ele></ele><time>2014-4-20T17:51:54Z</time></trkpt>
<trkpt lat="46.62145100" lon="7.15874900"><ele></ele><time>2014-4-20T17:51:57Z</time></trkpt>
<trkpt lat="46.62129500" lon="7.15888900"><ele></ele><time>2014-4-20T17:52:0Z</time></trkpt>
<trkpt lat="46.62115700" lon="7.15898300"><ele></ele><time>2014-4-20T17:52:3Z</time></trkpt>
<trkpt lat="46.62100900" lon="7.15908600"><ele></ele><time>2014-4-20T17:52:6Z</time></trkpt>
<trkpt lat="46.62091300" lon="7.15925200"><ele></ele><time>2014-4-20T17:52:9Z</time></trkpt>
<trkpt lat="46.62092800" lon="7.15943000"><ele></ele><time>2014-4-20T17:52:12Z</time></trkpt>
<trkpt lat="46.62099200" lon="7.15973700"><ele></ele><time>2014-4-20T17:52:15Z</time></trkpt>
<trkpt lat="46.62101500" lon="7.15994800"><ele></ele><time>2014-4-20T17:52:18Z</time></trkpt>
<trkpt lat="46.62110000" lon="7.16026200"><ele></ele><time>2014-4-20T17:52:21Z</time></trkpt>
<trkpt lat="46.62119100" lon="7.16052200"><ele></ele><time>2014-4-20T17:52:24Z</time></trkpt>
<trkpt lat="46.62127300" lon="7.16072400"><ele></ele><time>2014-4-20T17:52:27Z</time></trkpt>
<trkpt lat="46.62135000" lon="7.16090300"><ele></ele><time>2014-4-20T17:52:30Z</time></trkpt>
<trkpt lat="46.62142600" lon="7.16106400"><ele></ele><time>2014-4-20T17:52:33Z</time></trkpt>
<trkpt lat="46.62157900" lon="7.16132900"><ele></ele><time>2014-4-20T17:52:36Z</time></trkpt>
<trkpt lat="46.62172100" lon="7.16154100"><ele></ele><time>2014-4-20T17:52:39Z</time></trkpt>
<trkpt lat="46.62183600" lon="7.16168900"><ele></ele><time>2014-4-20T17:52:42Z</time></trkpt>
<trkpt lat="46.62198900" lon="7.16181500"><ele></ele><time>2014-4-20T17:52:45Z</time></trkpt>
<trkpt lat="46.62214300" lon="7.16198800"><ele></ele><time>2014-4-20T17:52:48Z</time></trkpt>
<trkpt lat="46.62222100" lon="7.16207900"><ele></ele><time>2014-4-20T17:52:51Z</time></trkpt>
<trkpt lat="46.62237000" lon="7.16225200"><ele></ele><time>2014-4-20T17:52:54Z</time></trkpt>
<trkpt lat="46.62243800" lon="7.16232800"><ele></ele><time>2014-4-20T17:52:57Z</time></trkpt>
<trkpt lat="46.62257500" lon="7.16250000"><ele></ele><time>2014-4-20T17:53:0Z</time></trkpt>
<trkpt lat="46.62279300" lon="7.16275500"><ele></ele><time>2014-4-20T17:53:3Z</time></trkpt>
<trkpt lat="46.62291000" lon="7.16288200"><ele></ele><time>2014-4-20T17:53:6Z</time></trkpt>
<trkpt lat="46.62314200" lon="7.16313700"><ele></ele><time>2014-4-20T17:53:9Z</time></trkpt>
<trkpt lat="46.62320500" lon="7.16321300"><ele></ele><time>2014-4-20T17:53:12Z</time></trkpt>
<trkpt lat="46.62331900" lon="7.16332400"><ele></ele><time>2014-4-20T17:53:15Z</time></trkpt>
<trkpt lat="46.62341600" lon="7.16344600"><ele></ele><time>2014-4-20T17:53:18Z</time></trkpt>
<trkpt lat="46.62348100" lon="7.16351900"><ele></ele><time>2014-4-20T17:53:21Z</time></trkpt>
<trkpt lat="46.62358600" lon="7.16360300"><ele></ele><time>2014-4-20T17:53:24Z</time></trkpt>
<trkpt lat="46.62368800" lon="7.16368700"><ele></ele><time>2014-4-20T17:53:27Z</time></trkpt>
<trkpt lat="46.62389000" lon="7.16384400"><ele></ele><time>2014-4-20T17:53:30Z</time></trkpt>
<trkpt lat="46.62405500" lon="7.16396400"><ele></ele><time>2014-4-20T17:53:33Z</time></trkpt>
<trkpt lat="46.62417100" lon="7.16404200"><ele></ele><time>2014-4-20T17:53:36Z</time></trkpt>
<trkpt lat="46.62431600" lon="7.16413000"><ele></ele><time>2014-4-20T17:53:39Z</time></trkpt>
<trkpt lat="46.62445700" lon="7.16418900"><ele></ele><time>2014-4-20T17:53:42Z</time></trkpt>
<trkpt lat="46.62461500" lon="7.16428100"><ele></ele><time>2014-4-20T17:53:45Z</time></trkpt>
<trkpt lat="46.62475600" lon="7.16436500"><ele></ele><time>2014-4-20T17:53:48Z</time></trkpt>
<trkpt lat="46.62490500" lon="7.16444200"><ele></ele><time>2014-4-20T17:53:51Z</time></trkpt>
<trkpt lat="46.62496600" lon="7.16448300"><ele></ele><time>2014-4-20T17:53:54Z</time></trkpt>
<trkpt lat="46.62503100" lon="7.16452900"><ele></ele><time>2014-4-20T17:53:57Z</time></trkpt>
<trkpt lat="46.62505400" lon="7.16454400"><ele></ele><time>2014-4-20T17:54:0Z</time></trkpt>
<trkpt lat="46.62521500" lon="7.16466400"><ele></ele><time>2014-4-20T17:54:3Z</time></trkpt>
<trkpt lat="46.62536300" lon="7.16478700"><ele></ele><time>2014-4-20T17:54:6Z</time></trkpt>
<trkpt lat="46.62545100" lon="7.16487000"><ele></ele><time>2014-4-20T17:54:9Z</time></trkpt>
<trkpt lat="46.62572200" lon="7.16515000"><ele></ele><time>2014-4-20T17:54:12Z</time></trkpt>
<trkpt lat="46.62607400" lon="7.16541100"><ele></ele><time>2014-4-20T17:54:15Z</time></trkpt>
<trkpt lat="46.62643600" lon="7.16561700"><ele></ele><time>2014-4-20T17:54:18Z</time></trkpt>
<trkpt lat="46.62661200" lon="7.16571300"><ele></ele><time>2014-4-20T17:54:21Z</time></trkpt>
<trkpt lat="46.62681600" lon="7.16583900"><ele></ele><time>2014-4-20T17:54:24Z</time></trkpt>
<trkpt lat="46.62700300" lon="7.16597100"><ele></ele><time>2014-4-20T17:54:27Z</time></trkpt>
<trkpt lat="46.62713600" lon="7.16606000"><ele></ele><time>2014-4-20T17:54:30Z</time></trkpt>
<trkpt lat="46.62728800" lon="7.16618300"><ele></ele><time>2014-4-20T17:54:33Z</time></trkpt>
<trkpt lat="46.62740300" lon="7.16628200"><ele></ele><time>2014-4-20T17:54:36Z</time></trkpt>
<trkpt lat="46.62755300" lon="7.16640000"><ele></ele><time>2014-4-20T17:54:39Z</time></trkpt>
<trkpt lat="46.62768700" lon="7.16650700"><ele></ele><time>2014-4-20T17:54:42Z</time></trkpt>
<trkpt lat="46.62777100" lon="7.16657000"><ele></ele><time>2014-4-20T17:54:45Z</time></trkpt>
<trkpt lat="46.62788000" lon="7.16667100"><ele></ele><time>2014-4-20T17:54:48Z</time></trkpt>
<trkpt lat="46.62808000" lon="7.16690400"><ele></ele><time>2014-4-20T17:54:51Z</time></trkpt>
<trkpt lat="46.62822600" lon="7.16699400"><ele></ele><time>2014-4-20T17:54:54Z</time></trkpt>
<trkpt lat="46.62838900" lon="7.16697100"><ele></ele><time>2014-4-20T17:54:57Z</time></trkpt>
<trkpt lat="46.62862500" lon="7.16697700"><ele></ele><time>2014-4-20T17:55:0Z</time></trkpt>
<trkpt lat="46.62884700" lon="7.16702400"><ele></ele><time>2014-4-20T17:55:3Z</time></trkpt>
<trkpt lat="46.62911900" lon="7.16709500"><ele></ele><time>2014-4-20T17:55:6Z</time></trkpt>
<trkpt lat="46.62934900" lon="7.16719800"><ele></ele><time>2014-4-20T17:55:9Z</time></trkpt>
<trkpt lat="46.62955500" lon="7.16736700"><ele></ele><time>2014-4-20T17:55:12Z</time></trkpt>
<trkpt lat="46.62981500" lon="7.16759800"><ele></ele><time>2014-4-20T17:55:15Z</time></trkpt>
<trkpt lat="46.63008000" lon="7.16780800"><ele></ele><time>2014-4-20T17:55:18Z</time></trkpt>
<trkpt lat="46.63037400" lon="7.16797200"><ele></ele><time>2014-4-20T17:55:21Z</time></trkpt>
<trkpt lat="46.63065800" lon="7.16811100"><ele></ele><time>2014-4-20T17:55:24Z</time></trkpt>
<trkpt lat="46.63089900" lon="7.16825600"><ele></ele><time>2014-4-20T17:55:27Z</time></trkpt>
<trkpt lat="46.63111700" lon="7.16843400"><ele></ele><time>2014-4-20T17:55:30Z</time></trkpt>
<trkpt lat="46.63132500" lon="7.16868000"><ele></ele><time>2014-4-20T17:55:33Z</time></trkpt>
<trkpt lat="46.63153300" lon="7.16892000"><ele></ele><time>2014-4-20T17:55:36Z</time></trkpt>
<trkpt lat="46.63171200" lon="7.16910600"><ele></ele><time>2014-4-20T17:55:39Z</time></trkpt>
<trkpt lat="46.63188600" lon="7.16930600"><ele></ele><time>2014-4-20T17:55:42Z</time></trkpt>
<trkpt lat="46.63203800" lon="7.16954800"><ele></ele><time>2014-4-20T17:55:45Z</time></trkpt>
<trkpt lat="46.63211800" lon="7.16973300"><ele></ele><time>2014-4-20T17:55:48Z</time></trkpt>
<trkpt lat="46.63220400" lon="7.16989200"><ele></ele><time>2014-4-20T17:55:51Z</time></trkpt>
<trkpt lat="46.63237900" lon="7.17013700"><ele></ele><time>2014-4-20T17:55:54Z</time></trkpt>
<trkpt lat="46.63252400" lon="7.17034500"><ele></ele><time>2014-4-20T17:55:57Z</time></trkpt>
<trkpt lat="46.63266700" lon="7.17055600"><ele></ele><time>2014-4-20T17:56:0Z</time></trkpt>
<trkpt lat="46.63278400" lon="7.17077700"><ele></ele><time>2014-4-20T17:56:3Z</time></trkpt>
<trkpt lat="46.63288200" lon="7.17097400"><ele></ele><time>2014-4-20T17:56:6Z</time></trkpt>
<trkpt lat="46.63297800" lon="7.17121400"><ele></ele><time>2014-4-20T17:56:9Z</time></trkpt>
<trkpt lat="46.63305400" lon="7.17148600"><ele></ele><time>2014-4-20T17:56:12Z</time></trkpt>
<trkpt lat="46.63311500" lon="7.17171000"><ele></ele><time>2014-4-20T17:56:15Z</time></trkpt>
<trkpt lat="46.63321800" lon="7.17187500"><ele></ele><time>2014-4-20T17:56:18Z</time></trkpt>
<trkpt lat="46.63332500" lon="7.17203200"><ele></ele><time>2014-4-20T17:56:21Z</time></trkpt>
<trkpt lat="46.63342800" lon="7.17218600"><ele></ele><time>2014-4-20T17:56:24Z</time></trkpt>
<trkpt lat="46.63354500" lon="7.17235200"><ele></ele><time>2014-4-20T17:56:27Z</time></trkpt>
<trkpt lat="46.63365400" lon="7.17256500"><ele></ele><time>2014-4-20T17:56:30Z</time></trkpt>
<trkpt lat="46.63372500" lon="7.17277700"><ele></ele><time>2014-4-20T17:56:33Z</time></trkpt>
<trkpt lat="46.63379800" lon="7.17299200"><ele></ele><time>2014-4-20T17:56:36Z</time></trkpt>
<trkpt lat="46.63388000" lon="7.17321100"><ele></ele><time>2014-4-20T17:56:39Z</time></trkpt>
<trkpt lat="46.63394500" lon="7.17337500"><ele></ele><time>2014-4-20T17:56:42Z</time></trkpt>
<trkpt lat="46.63403700" lon="7.17360600"><ele></ele><time>2014-4-20T17:56:45Z</time></trkpt>
<trkpt lat="46.63412700" lon="7.17379200"><ele></ele><time>2014-4-20T17:56:48Z</time></trkpt>
<trkpt lat="46.63422900" lon="7.17398400"><ele></ele><time>2014-4-20T17:56:51Z</time></trkpt>
<trkpt lat="46.63432700" lon="7.17415200"><ele></ele><time>2014-4-20T17:56:54Z</time></trkpt>
<trkpt lat="46.63434600" lon="7.17419000"><ele></ele><time>2014-4-20T17:56:57Z</time></trkpt>
<trkpt lat="46.63437100" lon="7.17421800"><ele></ele><time>2014-4-20T17:57:0Z</time></trkpt>
<trkpt lat="46.63438300" lon="7.17424000"><ele></ele><time>2014-4-20T17:57:3Z</time></trkpt>
<trkpt lat="46.63443900" lon="7.17433400"><ele></ele><time>2014-4-20T17:57:6Z</time></trkpt>
<trkpt lat="46.63446900" lon="7.17438700"><ele></ele><time>2014-4-20T17:57:9Z</time></trkpt>
<trkpt lat="46.63468100" lon="7.17477400"><ele></ele><time>2014-4-20T17:57:12Z</time></trkpt>
<trkpt lat="46.63486400" lon="7.17510000"><ele></ele><time>2014-4-20T17:57:15Z</time></trkpt>
<trkpt lat="46.63505300" lon="7.17537700"><ele></ele><time>2014-4-20T17:57:18Z</time></trkpt>
<trkpt lat="46.63525100" lon="7.17564400"><ele></ele><time>2014-4-20T17:57:21Z</time></trkpt>
<trkpt lat="46.63552100" lon="7.17597800"><ele></ele><time>2014-4-20T17:57:24Z</time></trkpt>
<trkpt lat="46.63577200" lon="7.17624700"><ele></ele><time>2014-4-20T17:57:27Z</time></trkpt>
<trkpt lat="46.63605900" lon="7.17644900"><ele></ele><time>2014-4-20T17:57:30Z</time></trkpt>
<trkpt lat="46.63638400" lon="7.17663800"><ele></ele><time>2014-4-20T17:57:33Z</time></trkpt>
<trkpt lat="46.63659800" lon="7.17690300"><ele></ele><time>2014-4-20T17:57:36Z</time></trkpt>
<trkpt lat="46.63686000" lon="7.17732400"><ele></ele><time>2014-4-20T17:57:39Z</time></trkpt>
<trkpt lat="46.63714100" lon="7.17769500"><ele></ele><time>2014-4-20T17:57:42Z</time></trkpt>
<trkpt lat="46.63756700" lon="7.17822300"><ele></ele><time>2014-4-20T17:57:45Z</time></trkpt>
<trkpt lat="46.63792900" lon="7.17865100"><ele></ele><time>2014-4-20T17:57:48Z</time></trkpt>
<trkpt lat="46.63815400" lon="7.17890300"><ele></ele><time>2014-4-20T17:57:51Z</time></trkpt>
<trkpt lat="46.63836700" lon="7.17919600"><ele></ele><time>2014-4-20T17:57:54Z</time></trkpt>
<trkpt lat="46.63854000" lon="7.17954800"><ele></ele><time>2014-4-20T17:57:57Z</time></trkpt>
<trkpt lat="46.63877400" lon="7.17997500"><ele></ele><time>2014-4-20T17:58:0Z</time></trkpt>
<trkpt lat="46.63896700" lon="7.18030300"><ele></ele><time>2014-4-20T17:58:3Z</time></trkpt>
<trkpt lat="46.63913300" lon="7.18064500"><ele></ele><time>2014-4-20T17:58:6Z</time></trkpt>
<trkpt lat="46.63922400" lon="7.18106200"><ele></ele><time>2014-4-20T17:58:9Z</time></trkpt>
<trkpt lat="46.63926300" lon="7.18134000"><ele></ele><time>2014-4-20T17:58:12Z</time></trkpt>
<trkpt lat="46.63930900" lon="7.18158000"><ele></ele><time>2014-4-20T17:58:15Z</time></trkpt>
<trkpt lat="46.63948400" lon="7.18186200"><ele></ele><time>2014-4-20T17:58:18Z</time></trkpt>
<trkpt lat="46.63983000" lon="7.18219200"><ele></ele><time>2014-4-20T17:58:21Z</time></trkpt>
<trkpt lat="46.63999100" lon="7.18247600"><ele></ele><time>2014-4-20T17:58:24Z</time></trkpt>
<trkpt lat="46.64019200" lon="7.18278200"><ele></ele><time>2014-4-20T17:58:27Z</time></trkpt>
<trkpt lat="46.64046100" lon="7.18301900"><ele></ele><time>2014-4-20T17:58:30Z</time></trkpt>
<trkpt lat="46.64074700" lon="7.18332200"><ele></ele><time>2014-4-20T17:58:33Z</time></trkpt>
<trkpt lat="46.64103700" lon="7.18377600"><ele></ele><time>2014-4-20T17:58:36Z</time></trkpt>
<trkpt lat="46.64110800" lon="7.18395200"><ele></ele><time>2014-4-20T17:58:39Z</time></trkpt>
<trkpt lat="46.64122100" lon="7.18445700"><ele></ele><time>2014-4-20T17:58:42Z</time></trkpt>
<trkpt lat="46.64128700" lon="7.18473900"><ele></ele><time>2014-4-20T17:58:45Z</time></trkpt>
<trkpt lat="46.64131800" lon="7.18487400"><ele></ele><time>2014-4-20T17:58:48Z</time></trkpt>
<trkpt lat="46.64142300" lon="7.18546000"><ele></ele><time>2014-4-20T17:58:51Z</time></trkpt>
<trkpt lat="46.64147900" lon="7.18587300"><ele></ele><time>2014-4-20T17:58:54Z</time></trkpt>
<trkpt lat="46.64150500" lon="7.18606100"><ele></ele><time>2014-4-20T17:58:57Z</time></trkpt>
<trkpt lat="46.64162700" lon="7.18646500"><ele></ele><time>2014-4-20T17:59:0Z</time></trkpt>
<trkpt lat="46.64186800" lon="7.18691700"><ele></ele><time>2014-4-20T17:59:3Z</time></trkpt>
<trkpt lat="46.64199300" lon="7.18711200"><ele></ele><time>2014-4-20T17:59:6Z</time></trkpt>
<trkpt lat="46.64211200" lon="7.18742600"><ele></ele><time>2014-4-20T17:59:9Z</time></trkpt>
<trkpt lat="46.64214000" lon="7.18772800"><ele></ele><time>2014-4-20T17:59:12Z</time></trkpt>
<trkpt lat="46.64216800" lon="7.18813300"><ele></ele><time>2014-4-20T17:59:15Z</time></trkpt>
<trkpt lat="46.64226000" lon="7.18835400"><ele></ele><time>2014-4-20T17:59:18Z</time></trkpt>
<trkpt lat="46.64236200" lon="7.18856100"><ele></ele><time>2014-4-20T17:59:21Z</time></trkpt>
<trkpt lat="46.64242000" lon="7.18871300"><ele></ele><time>2014-4-20T17:59:24Z</time></trkpt>
<trkpt lat="46.64250900" lon="7.18878700"><ele></ele><time>2014-4-20T17:59:27Z</time></trkpt>
<trkpt lat="46.64265600" lon="7.18881900"><ele></ele><time>2014-4-20T17:59:30Z</time></trkpt>
<trkpt lat="46.64285800" lon="7.18882100"><ele></ele><time>2014-4-20T17:59:33Z</time></trkpt>
<trkpt lat="46.64300600" lon="7.18891300"><ele></ele><time>2014-4-20T17:59:36Z</time></trkpt>
<trkpt lat="46.64311600" lon="7.18903600"><ele></ele><time>2014-4-20T17:59:39Z</time></trkpt>
<trkpt lat="46.64315100" lon="7.18910700"><ele></ele><time>2014-4-20T17:59:42Z</time></trkpt>
<trkpt lat="46.64318100" lon="7.18919000"><ele></ele><time>2014-4-20T17:59:45Z</time></trkpt>
<trkpt lat="46.64318500" lon="7.18921600"><ele></ele><time>2014-4-20T17:59:48Z</time></trkpt>
<trkpt lat="46.64321200" lon="7.18926700"><ele></ele><time>2014-4-20T17:59:51Z</time></trkpt>
<trkpt lat="46.64331000" lon="7.18938100"><ele></ele><time>2014-4-20T17:59:54Z</time></trkpt>
<trkpt lat="46.64340200" lon="7.18945000"><ele></ele><time>2014-4-20T17:59:57Z</time></trkpt>
<trkpt lat="46.64347800" lon="7.18948900"><ele></ele><time>2014-4-20T18:0:0Z</time></trkpt>
<trkpt lat="46.64358800" lon="7.18956600"><ele></ele><time>2014-4-20T18:0:3Z</time></trkpt>
<trkpt lat="46.64370400" lon="7.18968800"><ele></ele><time>2014-4-20T18:0:6Z</time></trkpt>
<trkpt lat="46.64381500" lon="7.18981500"><ele></ele><time>2014-4-20T18:0:9Z</time></trkpt>
<trkpt lat="46.64387700" lon="7.19001900"><ele></ele><time>2014-4-20T18:0:12Z</time></trkpt>
<trkpt lat="46.64395600" lon="7.19020100"><ele></ele><time>2014-4-20T18:0:15Z</time></trkpt>
<trkpt lat="46.64402200" lon="7.19037800"><ele></ele><time>2014-4-20T18:0:18Z</time></trkpt>
<trkpt lat="46.64411000" lon="7.19051800"><ele></ele><time>2014-4-20T18:0:21Z</time></trkpt>
<trkpt lat="46.64417400" lon="7.19067300"><ele></ele><time>2014-4-20T18:0:24Z</time></trkpt>
<trkpt lat="46.64426700" lon="7.19088900"><ele></ele><time>2014-4-20T18:0:27Z</time></trkpt>
<trkpt lat="46.64436800" lon="7.19115800"><ele></ele><time>2014-4-20T18:0:30Z</time></trkpt>
<trkpt lat="46.64438700" lon="7.19136500"><ele></ele><time>2014-4-20T18:0:33Z</time></trkpt>
<trkpt lat="46.64447100" lon="7.19155200"><ele></ele><time>2014-4-20T18:0:36Z</time></trkpt>
<trkpt lat="46.64453200" lon="7.19164500"><ele></ele><time>2014-4-20T18:0:39Z</time></trkpt>
<trkpt lat="46.64469400" lon="7.19186500"><ele></ele><time>2014-4-20T18:0:42Z</time></trkpt>
<trkpt lat="46.64487200" lon="7.19212300"><ele></ele><time>2014-4-20T18:0:45Z</time></trkpt>
<trkpt lat="46.64507100" lon="7.19235000"><ele></ele><time>2014-4-20T18:0:48Z</time></trkpt>
<trkpt lat="46.64521400" lon="7.19250600"><ele></ele><time>2014-4-20T18:0:51Z</time></trkpt>
<trkpt lat="46.64540700" lon="7.19283400"><ele></ele><time>2014-4-20T18:0:54Z</time></trkpt>
<trkpt lat="46.64550100" lon="7.19314600"><ele></ele><time>2014-4-20T18:0:57Z</time></trkpt>
<trkpt lat="46.64552000" lon="7.19325400"><ele></ele><time>2014-4-20T18:1:0Z</time></trkpt>
<trkpt lat="46.64569900" lon="7.19374200"><ele></ele><time>2014-4-20T18:1:3Z</time></trkpt>
<trkpt lat="46.64581400" lon="7.19421900"><ele></ele><time>2014-4-20T18:1:6Z</time></trkpt>
<trkpt lat="46.64584400" lon="7.19429500"><ele></ele><time>2014-4-20T18:1:9Z</time></trkpt>
<trkpt lat="46.64590600" lon="7.19444000"><ele></ele><time>2014-4-20T18:1:12Z</time></trkpt>
<trkpt lat="46.64601900" lon="7.19480300"><ele></ele><time>2014-4-20T18:1:15Z</time></trkpt>
<trkpt lat="46.64607800" lon="7.19515500"><ele></ele><time>2014-4-20T18:1:18Z</time></trkpt>
<trkpt lat="46.64615500" lon="7.19550100"><ele></ele><time>2014-4-20T18:1:21Z</time></trkpt>
<trkpt lat="46.64630200" lon="7.19574400"><ele></ele><time>2014-4-20T18:1:24Z</time></trkpt>
<trkpt lat="46.64645400" lon="7.19581500"><ele></ele><time>2014-4-20T18:1:27Z</time></trkpt>
<trkpt lat="46.64658800" lon="7.19591500"><ele></ele><time>2014-4-20T18:1:30Z</time></trkpt>
<trkpt lat="46.64663900" lon="7.19600600"><ele></ele><time>2014-4-20T18:1:33Z</time></trkpt>
<trkpt lat="46.64670600" lon="7.19615500"><ele></ele><time>2014-4-20T18:1:36Z</time></trkpt>
<trkpt lat="46.64673600" lon="7.19628500"><ele></ele><time>2014-4-20T18:1:39Z</time></trkpt>
<trkpt lat="46.64677300" lon="7.19648000"><ele></ele><time>2014-4-20T18:1:42Z</time></trkpt>
<trkpt lat="46.64682200" lon="7.19666300"><ele></ele><time>2014-4-20T18:1:45Z</time></trkpt>
<trkpt lat="46.64686400" lon="7.19681900"><ele></ele><time>2014-4-20T18:1:48Z</time></trkpt>
<trkpt lat="46.64691000" lon="7.19699300"><ele></ele><time>2014-4-20T18:1:51Z</time></trkpt>
<trkpt lat="46.64696800" lon="7.19721400"><ele></ele><time>2014-4-20T18:1:54Z</time></trkpt>
<trkpt lat="46.64706500" lon="7.19742900"><ele></ele><time>2014-4-20T18:1:57Z</time></trkpt>
<trkpt lat="46.64723200" lon="7.19764900"><ele></ele><time>2014-4-20T18:2:0Z</time></trkpt>
<trkpt lat="46.64738600" lon="7.19781400"><ele></ele><time>2014-4-20T18:2:3Z</time></trkpt>
<trkpt lat="46.64756600" lon="7.19798400"><ele></ele><time>2014-4-20T18:2:6Z</time></trkpt>
<trkpt lat="46.64767500" lon="7.19809800"><ele></ele><time>2014-4-20T18:2:9Z</time></trkpt>
<trkpt lat="46.64776000" lon="7.19829300"><ele></ele><time>2014-4-20T18:2:12Z</time></trkpt>
<trkpt lat="46.64783100" lon="7.19844900"><ele></ele><time>2014-4-20T18:2:15Z</time></trkpt>
<trkpt lat="46.64790800" lon="7.19862200"><ele></ele><time>2014-4-20T18:2:18Z</time></trkpt>
<trkpt lat="46.64796900" lon="7.19879300"><ele></ele><time>2014-4-20T18:2:21Z</time></trkpt>
<trkpt lat="46.64804800" lon="7.19901200"><ele></ele><time>2014-4-20T18:2:24Z</time></trkpt>
<trkpt lat="46.64815200" lon="7.19928900"><ele></ele><time>2014-4-20T18:2:27Z</time></trkpt>
<trkpt lat="46.64822300" lon="7.19959700"><ele></ele><time>2014-4-20T18:2:30Z</time></trkpt>
<trkpt lat="46.64830200" lon="7.19997000"><ele></ele><time>2014-4-20T18:2:33Z</time></trkpt>
<trkpt lat="46.64844000" lon="7.20015600"><ele></ele><time>2014-4-20T18:2:36Z</time></trkpt>
<trkpt lat="46.64856900" lon="7.20038700"><ele></ele><time>2014-4-20T18:2:39Z</time></trkpt>
<trkpt lat="46.64863600" lon="7.20056000"><ele></ele><time>2014-4-20T18:2:42Z</time></trkpt>
<trkpt lat="46.64875700" lon="7.20078100"><ele></ele><time>2014-4-20T18:2:45Z</time></trkpt>
<trkpt lat="46.64885600" lon="7.20098700"><ele></ele><time>2014-4-20T18:2:48Z</time></trkpt>
<trkpt lat="46.64892200" lon="7.20131500"><ele></ele><time>2014-4-20T18:2:51Z</time></trkpt>
<trkpt lat="46.64888900" lon="7.20167000"><ele></ele><time>2014-4-20T18:2:54Z</time></trkpt>
<trkpt lat="46.64885200" lon="7.20196200"><ele></ele><time>2014-4-20T18:2:57Z</time></trkpt>
<trkpt lat="46.64881600" lon="7.20227900"><ele></ele><time>2014-4-20T18:3:0Z</time></trkpt>
<trkpt lat="46.64879600" lon="7.20254700"><ele></ele><time>2014-4-20T18:3:3Z</time></trkpt>
<trkpt lat="46.64874000" lon="7.20286500"><ele></ele><time>2014-4-20T18:3:6Z</time></trkpt>
<trkpt lat="46.64867900" lon="7.20295700"><ele></ele><time>2014-4-20T18:3:9Z</time></trkpt>
<trkpt lat="46.64851000" lon="7.20312800"><ele></ele><time>2014-4-20T18:3:12Z</time></trkpt>
<trkpt lat="46.64846600" lon="7.20323500"><ele></ele><time>2014-4-20T18:3:15Z</time></trkpt>
<trkpt lat="46.64837700" lon="7.20353800"><ele></ele><time>2014-4-20T18:3:18Z</time></trkpt>
<trkpt lat="46.64835100" lon="7.20374700"><ele></ele><time>2014-4-20T18:3:21Z</time></trkpt>
<trkpt lat="46.64835500" lon="7.20391900"><ele></ele><time>2014-4-20T18:3:24Z</time></trkpt>
<trkpt lat="46.64833900" lon="7.20416800"><ele></ele><time>2014-4-20T18:3:27Z</time></trkpt>
<trkpt lat="46.64833200" lon="7.20435000"><ele></ele><time>2014-4-20T18:3:30Z</time></trkpt>
<trkpt lat="46.64835600" lon="7.20453100"><ele></ele><time>2014-4-20T18:3:33Z</time></trkpt>
<trkpt lat="46.64835700" lon="7.20463500"><ele></ele><time>2014-4-20T18:3:36Z</time></trkpt>
<trkpt lat="46.64833900" lon="7.20470000"><ele></ele><time>2014-4-20T18:3:39Z</time></trkpt>
<trkpt lat="46.64829500" lon="7.20490400"><ele></ele><time>2014-4-20T18:3:42Z</time></trkpt>
<trkpt lat="46.64828600" lon="7.20524000"><ele></ele><time>2014-4-20T18:3:45Z</time></trkpt>
<trkpt lat="46.64831200" lon="7.20598700"><ele></ele><time>2014-4-20T18:3:48Z</time></trkpt>
<trkpt lat="46.64820400" lon="7.20636700"><ele></ele><time>2014-4-20T18:3:51Z</time></trkpt>
<trkpt lat="46.64791600" lon="7.20681900"><ele></ele><time>2014-4-20T18:3:54Z</time></trkpt>
<trkpt lat="46.64779200" lon="7.20702200"><ele></ele><time>2014-4-20T18:3:57Z</time></trkpt>
<trkpt lat="46.64768400" lon="7.20713600"><ele></ele><time>2014-4-20T18:4:0Z</time></trkpt>
<trkpt lat="46.64761100" lon="7.20727000"><ele></ele><time>2014-4-20T18:4:3Z</time></trkpt>
<trkpt lat="46.64754100" lon="7.20738700"><ele></ele><time>2014-4-20T18:4:6Z</time></trkpt>
<trkpt lat="46.64744400" lon="7.20749800"><ele></ele><time>2014-4-20T18:4:9Z</time></trkpt>
<trkpt lat="46.64732400" lon="7.20762400"><ele></ele><time>2014-4-20T18:4:12Z</time></trkpt>
<trkpt lat="46.64710500" lon="7.20775500"><ele></ele><time>2014-4-20T18:4:15Z</time></trkpt>
<trkpt lat="46.64701000" lon="7.20782600"><ele></ele><time>2014-4-20T18:4:18Z</time></trkpt>
<trkpt lat="46.64681000" lon="7.20800300"><ele></ele><time>2014-4-20T18:4:21Z</time></trkpt>
<trkpt lat="46.64672100" lon="7.20809000"><ele></ele><time>2014-4-20T18:4:24Z</time></trkpt>
<trkpt lat="46.64660300" lon="7.20815900"><ele></ele><time>2014-4-20T18:4:27Z</time></trkpt>
<trkpt lat="46.64648400" lon="7.20818200"><ele></ele><time>2014-4-20T18:4:30Z</time></trkpt>
<trkpt lat="46.64635500" lon="7.20814800"><ele></ele><time>2014-4-20T18:4:33Z</time></trkpt>
<trkpt lat="46.64613700" lon="7.20813200"><ele></ele><time>2014-4-20T18:4:36Z</time></trkpt>
<trkpt lat="46.64607400" lon="7.20816200"><ele></ele><time>2014-4-20T18:4:39Z</time></trkpt>
<trkpt lat="46.64598500" lon="7.20826300"><ele></ele><time>2014-4-20T18:4:42Z</time></trkpt>
<trkpt lat="46.64593200" lon="7.20834800"><ele></ele><time>2014-4-20T18:4:45Z</time></trkpt>
<trkpt lat="46.64588400" lon="7.20842800"><ele></ele><time>2014-4-20T18:4:48Z</time></trkpt>
<trkpt lat="46.64577100" lon="7.20848900"><ele></ele><time>2014-4-20T18:4:51Z</time></trkpt>
<trkpt lat="46.64565400" lon="7.20847600"><ele></ele><time>2014-4-20T18:4:54Z</time></trkpt>
<trkpt lat="46.64550300" lon="7.20844500"><ele></ele><time>2014-4-20T18:4:57Z</time></trkpt>
<trkpt lat="46.64548700" lon="7.20843700"><ele></ele><time>2014-4-20T18:5:0Z</time></trkpt>
<trkpt lat="46.64538400" lon="7.20848200"><ele></ele><time>2014-4-20T18:5:3Z</time></trkpt>
<trkpt lat="46.64523000" lon="7.20842800"><ele></ele><time>2014-4-20T18:5:6Z</time></trkpt>
<trkpt lat="46.64510900" lon="7.20837000"><ele></ele><time>2014-4-20T18:5:9Z</time></trkpt>
<trkpt lat="46.64495300" lon="7.20840600"><ele></ele><time>2014-4-20T18:5:12Z</time></trkpt>
<trkpt lat="46.64481400" lon="7.20845300"><ele></ele><time>2014-4-20T18:5:15Z</time></trkpt>
<trkpt lat="46.64477700" lon="7.20848200"><ele></ele><time>2014-4-20T18:5:18Z</time></trkpt>
<trkpt lat="46.64471800" lon="7.20856900"><ele></ele><time>2014-4-20T18:5:21Z</time></trkpt>
<trkpt lat="46.64464800" lon="7.20872700"><ele></ele><time>2014-4-20T18:5:24Z</time></trkpt>
<trkpt lat="46.64460300" lon="7.20885800"><ele></ele><time>2014-4-20T18:5:27Z</time></trkpt>
<trkpt lat="46.64456900" lon="7.20897300"><ele></ele><time>2014-4-20T18:5:30Z</time></trkpt>
<trkpt lat="46.64454800" lon="7.20903000"><ele></ele><time>2014-4-20T18:5:33Z</time></trkpt>
<trkpt lat="46.64449900" lon="7.20915200"><ele></ele><time>2014-4-20T18:5:36Z</time></trkpt>
<trkpt lat="46.64439000" lon="7.20928200"><ele></ele><time>2014-4-20T18:5:39Z</time></trkpt>
<trkpt lat="46.64426600" lon="7.20940000"><ele></ele><time>2014-4-20T18:5:42Z</time></trkpt>
<trkpt lat="46.64413500" lon="7.20954500"><ele></ele><time>2014-4-20T18:5:45Z</time></trkpt>
<trkpt lat="46.64409200" lon="7.20965400"><ele></ele><time>2014-4-20T18:5:48Z</time></trkpt>
<trkpt lat="46.64405700" lon="7.20982200"><ele></ele><time>2014-4-20T18:5:51Z</time></trkpt>
<trkpt lat="46.64404000" lon="7.21003100"><ele></ele><time>2014-4-20T18:5:54Z</time></trkpt>
<trkpt lat="46.64403100" lon="7.21016700"><ele></ele><time>2014-4-20T18:5:57Z</time></trkpt>
<trkpt lat="46.64401900" lon="7.21027500"><ele></ele><time>2014-4-20T18:6:0Z</time></trkpt>
<trkpt lat="46.64401400" lon="7.21041800"><ele></ele><time>2014-4-20T18:6:3Z</time></trkpt>
<trkpt lat="46.64401100" lon="7.21058800"><ele></ele><time>2014-4-20T18:6:6Z</time></trkpt>
<trkpt lat="46.64398100" lon="7.21072900"><ele></ele><time>2014-4-20T18:6:9Z</time></trkpt>
<trkpt lat="46.64397500" lon="7.21076600"><ele></ele><time>2014-4-20T18:6:12Z</time></trkpt>
<trkpt lat="46.64388200" lon="7.21090500"><ele></ele><time>2014-4-20T18:6:15Z</time></trkpt>
<trkpt lat="46.64387300" lon="7.21093100"><ele></ele><time>2014-4-20T18:6:18Z</time></trkpt>
<trkpt lat="46.64382600" lon="7.21107000"><ele></ele><time>2014-4-20T18:6:21Z</time></trkpt>
<trkpt lat="46.64378400" lon="7.21116900"><ele></ele><time>2014-4-20T18:6:24Z</time></trkpt>
<trkpt lat="46.64373600" lon="7.21128300"><ele></ele><time>2014-4-20T18:6:27Z</time></trkpt>
<trkpt lat="46.64365600" lon="7.21142300"><ele></ele><time>2014-4-20T18:6:30Z</time></trkpt>
<trkpt lat="46.64360000" lon="7.21152400"><ele></ele><time>2014-4-20T18:6:33Z</time></trkpt>
<trkpt lat="46.64352700" lon="7.21165200"><ele></ele><time>2014-4-20T18:6:36Z</time></trkpt>
<trkpt lat="46.64344800" lon="7.21184300"><ele></ele><time>2014-4-20T18:6:39Z</time></trkpt>
<trkpt lat="46.64344300" lon="7.21196200"><ele></ele><time>2014-4-20T18:6:42Z</time></trkpt>
<trkpt lat="46.64344600" lon="7.21209400"><ele></ele><time>2014-4-20T18:6:45Z</time></trkpt>
<trkpt lat="46.64340200" lon="7.21232500"><ele></ele><time>2014-4-20T18:6:48Z</time></trkpt>
<trkpt lat="46.64338500" lon="7.21250500"><ele></ele><time>2014-4-20T18:6:51Z</time></trkpt>
<trkpt lat="46.64337000" lon="7.21268900"><ele></ele><time>2014-4-20T18:6:54Z</time></trkpt>
<trkpt lat="46.64335500" lon="7.21273100"><ele></ele><time>2014-4-20T18:6:57Z</time></trkpt>
<trkpt lat="46.64330200" lon="7.21286400"><ele></ele><time>2014-4-20T18:7:0Z</time></trkpt>
<trkpt lat="46.64324700" lon="7.21293200"><ele></ele><time>2014-4-20T18:7:3Z</time></trkpt>
<trkpt lat="46.64318900" lon="7.21303200"><ele></ele><time>2014-4-20T18:7:6Z</time></trkpt>
<trkpt lat="46.64317900" lon="7.21304300"><ele></ele><time>2014-4-20T18:7:9Z</time></trkpt>
<trkpt lat="46.64311800" lon="7.21311000"><ele></ele><time>2014-4-20T18:7:12Z</time></trkpt>
<trkpt lat="46.64310500" lon="7.21311800"><ele></ele><time>2014-4-20T18:7:15Z</time></trkpt>
<trkpt lat="46.64301200" lon="7.21318900"><ele></ele><time>2014-4-20T18:7:18Z</time></trkpt>
<trkpt lat="46.64289900" lon="7.21326700"><ele></ele><time>2014-4-20T18:7:21Z</time></trkpt>
<trkpt lat="46.64280800" lon="7.21329000"><ele></ele><time>2014-4-20T18:7:24Z</time></trkpt>
<trkpt lat="46.64276200" lon="7.21329000"><ele></ele><time>2014-4-20T18:7:27Z</time></trkpt>
<trkpt lat="46.64268700" lon="7.21323500"><ele></ele><time>2014-4-20T18:7:30Z</time></trkpt>
<trkpt lat="46.64258700" lon="7.21319100"><ele></ele><time>2014-4-20T18:7:33Z</time></trkpt>
<trkpt lat="46.64247500" lon="7.21322700"><ele></ele><time>2014-4-20T18:7:36Z</time></trkpt>
<trkpt lat="46.64240500" lon="7.21334100"><ele></ele><time>2014-4-20T18:7:39Z</time></trkpt>
<trkpt lat="46.64235400" lon="7.21349700"><ele></ele><time>2014-4-20T18:7:42Z</time></trkpt>
<trkpt lat="46.64235800" lon="7.21364300"><ele></ele><time>2014-4-20T18:7:45Z</time></trkpt>
<trkpt lat="46.64236400" lon="7.21377700"><ele></ele><time>2014-4-20T18:7:48Z</time></trkpt>
<trkpt lat="46.64236000" lon="7.21394800"><ele></ele><time>2014-4-20T18:7:51Z</time></trkpt>
<trkpt lat="46.64234400" lon="7.21408700"><ele></ele><time>2014-4-20T18:7:54Z</time></trkpt>
<trkpt lat="46.64231300" lon="7.21423600"><ele></ele><time>2014-4-20T18:7:57Z</time></trkpt>
<trkpt lat="46.64228800" lon="7.21436700"><ele></ele><time>2014-4-20T18:8:0Z</time></trkpt>
<trkpt lat="46.64228000" lon="7.21448000"><ele></ele><time>2014-4-20T18:8:3Z</time></trkpt>
<trkpt lat="46.64227700" lon="7.21454700"><ele></ele><time>2014-4-20T18:8:6Z</time></trkpt>
<trkpt lat="46.64226400" lon="7.21475800"><ele></ele><time>2014-4-20T18:8:9Z</time></trkpt>
<trkpt lat="46.64226500" lon="7.21477800"><ele></ele><time>2014-4-20T18:8:12Z</time></trkpt>
<trkpt lat="46.64224400" lon="7.21496700"><ele></ele><time>2014-4-20T18:8:15Z</time></trkpt>
<trkpt lat="46.64219000" lon="7.21510700"><ele></ele><time>2014-4-20T18:8:18Z</time></trkpt>
<trkpt lat="46.64214700" lon="7.21519400"><ele></ele><time>2014-4-20T18:8:21Z</time></trkpt>
<trkpt lat="46.64211500" lon="7.21531100"><ele></ele><time>2014-4-20T18:8:24Z</time></trkpt>
<trkpt lat="46.64207500" lon="7.21544200"><ele></ele><time>2014-4-20T18:8:27Z</time></trkpt>
<trkpt lat="46.64202600" lon="7.21558000"><ele></ele><time>2014-4-20T18:8:30Z</time></trkpt>
<trkpt lat="46.64196300" lon="7.21573700"><ele></ele><time>2014-4-20T18:8:33Z</time></trkpt>
<trkpt lat="46.64190400" lon="7.21587800"><ele></ele><time>2014-4-20T18:8:36Z</time></trkpt>
<trkpt lat="46.64186400" lon="7.21598200"><ele></ele><time>2014-4-20T18:8:39Z</time></trkpt>
<trkpt lat="46.64181400" lon="7.21612200"><ele></ele><time>2014-4-20T18:8:42Z</time></trkpt>
<trkpt lat="46.64176100" lon="7.21624900"><ele></ele><time>2014-4-20T18:8:45Z</time></trkpt>
<trkpt lat="46.64174900" lon="7.21631900"><ele></ele><time>2014-4-20T18:8:48Z</time></trkpt>
<trkpt lat="46.64171700" lon="7.21642500"><ele></ele><time>2014-4-20T18:8:51Z</time></trkpt>
<trkpt lat="46.64167000" lon="7.21661300"><ele></ele><time>2014-4-20T18:8:54Z</time></trkpt>
<trkpt lat="46.64163500" lon="7.21678100"><ele></ele><time>2014-4-20T18:8:57Z</time></trkpt>
<trkpt lat="46.64160900" lon="7.21693400"><ele></ele><time>2014-4-20T18:9:0Z</time></trkpt>
<trkpt lat="46.64157700" lon="7.21711300"><ele></ele><time>2014-4-20T18:9:3Z</time></trkpt>
<trkpt lat="46.64155000" lon="7.21728000"><ele></ele><time>2014-4-20T18:9:6Z</time></trkpt>
<trkpt lat="46.64152300" lon="7.21744600"><ele></ele><time>2014-4-20T18:9:9Z</time></trkpt>
<trkpt lat="46.64151600" lon="7.21760000"><ele></ele><time>2014-4-20T18:9:12Z</time></trkpt>
<trkpt lat="46.64153000" lon="7.21777500"><ele></ele><time>2014-4-20T18:9:15Z</time></trkpt>
<trkpt lat="46.64156300" lon="7.21797100"><ele></ele><time>2014-4-20T18:9:18Z</time></trkpt>
<trkpt lat="46.64159800" lon="7.21812000"><ele></ele><time>2014-4-20T18:9:21Z</time></trkpt>
<trkpt lat="46.64162700" lon="7.21831300"><ele></ele><time>2014-4-20T18:9:24Z</time></trkpt>
<trkpt lat="46.64164800" lon="7.21848400"><ele></ele><time>2014-4-20T18:9:27Z</time></trkpt>
<trkpt lat="46.64165600" lon="7.21864900"><ele></ele><time>2014-4-20T18:9:30Z</time></trkpt>
<trkpt lat="46.64163600" lon="7.21870300"><ele></ele><time>2014-4-20T18:9:33Z</time></trkpt>
<trkpt lat="46.64163100" lon="7.21871500"><ele></ele><time>2014-4-20T18:9:36Z</time></trkpt>
<trkpt lat="46.64162300" lon="7.21873400"><ele></ele><time>2014-4-20T18:9:39Z</time></trkpt>
<trkpt lat="46.64156700" lon="7.21882400"><ele></ele><time>2014-4-20T18:9:42Z</time></trkpt>
<trkpt lat="46.64151800" lon="7.21887600"><ele></ele><time>2014-4-20T18:9:45Z</time></trkpt>
<trkpt lat="46.64143000" lon="7.21895300"><ele></ele><time>2014-4-20T18:9:48Z</time></trkpt>
<trkpt lat="46.64132200" lon="7.21901300"><ele></ele><time>2014-4-20T18:9:51Z</time></trkpt>
<trkpt lat="46.64118900" lon="7.21908400"><ele></ele><time>2014-4-20T18:9:54Z</time></trkpt>
<trkpt lat="46.64111200" lon="7.21912500"><ele></ele><time>2014-4-20T18:9:57Z</time></trkpt>
<trkpt lat="46.64103800" lon="7.21917600"><ele></ele><time>2014-4-20T18:10:0Z</time></trkpt>
<trkpt lat="46.64091800" lon="7.21922200"><ele></ele><time>2014-4-20T18:10:3Z</time></trkpt>
<trkpt lat="46.64079200" lon="7.21925900"><ele></ele><time>2014-4-20T18:10:6Z</time></trkpt>
<trkpt lat="46.64065000" lon="7.21925800"><ele></ele><time>2014-4-20T18:10:9Z</time></trkpt>
<trkpt lat="46.64052200" lon="7.21923100"><ele></ele><time>2014-4-20T18:10:12Z</time></trkpt>
<trkpt lat="46.64039700" lon="7.21921300"><ele></ele><time>2014-4-20T18:10:15Z</time></trkpt>
<trkpt lat="46.64032900" lon="7.21920700"><ele></ele><time>2014-4-20T18:10:18Z</time></trkpt>
<trkpt lat="46.64026200" lon="7.21917900"><ele></ele><time>2014-4-20T18:10:21Z</time></trkpt>
<trkpt lat="46.64014100" lon="7.21914700"><ele></ele><time>2014-4-20T18:10:24Z</time></trkpt>
<trkpt lat="46.64014100" lon="7.21914700"><ele></ele><time>2014-4-20T18:10:27Z</time></trkpt>
<trkpt lat="46.64007100" lon="7.21916200"><ele></ele><time>2014-4-20T18:10:30Z</time></trkpt>
<trkpt lat="46.63991600" lon="7.21913300"><ele></ele><time>2014-4-20T18:10:33Z</time></trkpt>
<trkpt lat="46.63980300" lon="7.21913800"><ele></ele><time>2014-4-20T18:10:36Z</time></trkpt>
<trkpt lat="46.63969800" lon="7.21916900"><ele></ele><time>2014-4-20T18:10:39Z</time></trkpt>
<trkpt lat="46.63959700" lon="7.21922500"><ele></ele><time>2014-4-20T18:10:42Z</time></trkpt>
<trkpt lat="46.63950000" lon="7.21928400"><ele></ele><time>2014-4-20T18:10:45Z</time></trkpt>
<trkpt lat="46.63939100" lon="7.21935100"><ele></ele><time>2014-4-20T18:10:48Z</time></trkpt>
<trkpt lat="46.63930000" lon="7.21942800"><ele></ele><time>2014-4-20T18:10:51Z</time></trkpt>
<trkpt lat="46.63929000" lon="7.21943900"><ele></ele><time>2014-4-20T18:10:54Z</time></trkpt>
<trkpt lat="46.63921900" lon="7.21944600"><ele></ele><time>2014-4-20T18:10:57Z</time></trkpt>
<trkpt lat="46.63911100" lon="7.21944100"><ele></ele><time>2014-4-20T18:11:0Z</time></trkpt>
<trkpt lat="46.63903300" lon="7.21940300"><ele></ele><time>2014-4-20T18:11:3Z</time></trkpt>
<trkpt lat="46.63897800" lon="7.21938300"><ele></ele><time>2014-4-20T18:11:6Z</time></trkpt>
<trkpt lat="46.63891200" lon="7.21930100"><ele></ele><time>2014-4-20T18:11:9Z</time></trkpt>
<trkpt lat="46.63889100" lon="7.21927900"><ele></ele><time>2014-4-20T18:11:12Z</time></trkpt>
<trkpt lat="46.63881900" lon="7.21918300"><ele></ele><time>2014-4-20T18:11:15Z</time></trkpt>
<trkpt lat="46.63875500" lon="7.21909500"><ele></ele><time>2014-4-20T18:11:18Z</time></trkpt>
<trkpt lat="46.63874300" lon="7.21908600"><ele></ele><time>2014-4-20T18:11:21Z</time></trkpt>
<trkpt lat="46.63862100" lon="7.21901100"><ele></ele><time>2014-4-20T18:11:24Z</time></trkpt>
<trkpt lat="46.63851400" lon="7.21903400"><ele></ele><time>2014-4-20T18:11:27Z</time></trkpt>
<trkpt lat="46.63841600" lon="7.21907100"><ele></ele><time>2014-4-20T18:11:30Z</time></trkpt>
<trkpt lat="46.63830800" lon="7.21913100"><ele></ele><time>2014-4-20T18:11:33Z</time></trkpt>
<trkpt lat="46.63824100" lon="7.21913700"><ele></ele><time>2014-4-20T18:11:36Z</time></trkpt>
<trkpt lat="46.63813400" lon="7.21917400"><ele></ele><time>2014-4-20T18:11:39Z</time></trkpt>
<trkpt lat="46.63803300" lon="7.21921200"><ele></ele><time>2014-4-20T18:11:42Z</time></trkpt>
<trkpt lat="46.63794500" lon="7.21923000"><ele></ele><time>2014-4-20T18:11:45Z</time></trkpt>
<trkpt lat="46.63784500" lon="7.21927900"><ele></ele><time>2014-4-20T18:11:48Z</time></trkpt>
<trkpt lat="46.63777200" lon="7.21928400"><ele></ele><time>2014-4-20T18:11:51Z</time></trkpt>
<trkpt lat="46.63768700" lon="7.21932200"><ele></ele><time>2014-4-20T18:11:54Z</time></trkpt>
<trkpt lat="46.63759800" lon="7.21936800"><ele></ele><time>2014-4-20T18:11:57Z</time></trkpt>
<trkpt lat="46.63751800" lon="7.21941600"><ele></ele><time>2014-4-20T18:12:0Z</time></trkpt>
<trkpt lat="46.63739700" lon="7.21942200"><ele></ele><time>2014-4-20T18:12:3Z</time></trkpt>
<trkpt lat="46.63735400" lon="7.21943300"><ele></ele><time>2014-4-20T18:12:6Z</time></trkpt>
<trkpt lat="46.63726800" lon="7.21947000"><ele></ele><time>2014-4-20T18:12:9Z</time></trkpt>
<trkpt lat="46.63717000" lon="7.21952400"><ele></ele><time>2014-4-20T18:12:12Z</time></trkpt>
<trkpt lat="46.63705900" lon="7.21953500"><ele></ele><time>2014-4-20T18:12:15Z</time></trkpt>
<trkpt lat="46.63695600" lon="7.21945500"><ele></ele><time>2014-4-20T18:12:18Z</time></trkpt>
<trkpt lat="46.63689000" lon="7.21939100"><ele></ele><time>2014-4-20T18:12:21Z</time></trkpt>
<trkpt lat="46.63683400" lon="7.21942200"><ele></ele><time>2014-4-20T18:12:24Z</time></trkpt>
<trkpt lat="46.63678400" lon="7.21948500"><ele></ele><time>2014-4-20T18:12:27Z</time></trkpt>
<trkpt lat="46.63676100" lon="7.21952400"><ele></ele><time>2014-4-20T18:12:30Z</time></trkpt>
<trkpt lat="46.63667800" lon="7.21964500"><ele></ele><time>2014-4-20T18:12:33Z</time></trkpt>
<trkpt lat="46.63658700" lon="7.21966700"><ele></ele><time>2014-4-20T18:12:36Z</time></trkpt>
<trkpt lat="46.63648500" lon="7.21965300"><ele></ele><time>2014-4-20T18:12:39Z</time></trkpt>
<trkpt lat="46.63640100" lon="7.21959500"><ele></ele><time>2014-4-20T18:12:42Z</time></trkpt>
<trkpt lat="46.63632600" lon="7.21955500"><ele></ele><time>2014-4-20T18:12:45Z</time></trkpt>
<trkpt lat="46.63625800" lon="7.21954000"><ele></ele><time>2014-4-20T18:12:48Z</time></trkpt>
<trkpt lat="46.63613900" lon="7.21948200"><ele></ele><time>2014-4-20T18:12:51Z</time></trkpt>
<trkpt lat="46.63604700" lon="7.21947100"><ele></ele><time>2014-4-20T18:12:54Z</time></trkpt>
<trkpt lat="46.63591400" lon="7.21942700"><ele></ele><time>2014-4-20T18:12:57Z</time></trkpt>
<trkpt lat="46.63580400" lon="7.21941500"><ele></ele><time>2014-4-20T18:13:0Z</time></trkpt>
<trkpt lat="46.63577000" lon="7.21942500"><ele></ele><time>2014-4-20T18:13:3Z</time></trkpt>
<trkpt lat="46.63572200" lon="7.21941500"><ele></ele><time>2014-4-20T18:13:6Z</time></trkpt>
<trkpt lat="46.63563400" lon="7.21929700"><ele></ele><time>2014-4-20T18:13:9Z</time></trkpt>
<trkpt lat="46.63555700" lon="7.21921800"><ele></ele><time>2014-4-20T18:13:12Z</time></trkpt>
<trkpt lat="46.63548700" lon="7.21913200"><ele></ele><time>2014-4-20T18:13:15Z</time></trkpt>
<trkpt lat="46.63541100" lon="7.21906800"><ele></ele><time>2014-4-20T18:13:18Z</time></trkpt>
<trkpt lat="46.63534500" lon="7.21904300"><ele></ele><time>2014-4-20T18:13:21Z</time></trkpt>
<trkpt lat="46.63535100" lon="7.21902400"><ele></ele><time>2014-4-20T18:13:24Z</time></trkpt>
<trkpt lat="46.63546000" lon="7.21900500"><ele></ele><time>2014-4-20T18:13:27Z</time></trkpt>
<trkpt lat="46.63552400" lon="7.21905200"><ele></ele><time>2014-4-20T18:13:30Z</time></trkpt>
<trkpt lat="46.63549600" lon="7.21917200"><ele></ele><time>2014-4-20T18:13:33Z</time></trkpt>
<trkpt lat="46.63548400" lon="7.21928300"><ele></ele><time>2014-4-20T18:13:36Z</time></trkpt>
<trkpt lat="46.63547500" lon="7.21930500"><ele></ele><time>2014-4-20T18:13:39Z</time></trkpt>
<trkpt lat="46.63543100" lon="7.21939900"><ele></ele><time>2014-4-20T18:13:42Z</time></trkpt>
<trkpt lat="46.63537600" lon="7.21948200"><ele></ele><time>2014-4-20T18:13:45Z</time></trkpt>
<trkpt lat="46.63530000" lon="7.21983200"><ele></ele><time>2014-4-20T18:13:48Z</time></trkpt>
<trkpt lat="46.63528500" lon="7.21986000"><ele></ele><time>2014-4-20T18:13:51Z</time></trkpt>
<trkpt lat="46.63524200" lon="7.21996400"><ele></ele><time>2014-4-20T18:13:54Z</time></trkpt>
<trkpt lat="46.63519800" lon="7.22007500"><ele></ele><time>2014-4-20T18:13:57Z</time></trkpt>
<trkpt lat="46.63515200" lon="7.22019500"><ele></ele><time>2014-4-20T18:14:0Z</time></trkpt>
<trkpt lat="46.63511700" lon="7.22027000"><ele></ele><time>2014-4-20T18:14:3Z</time></trkpt>
<trkpt lat="46.63505700" lon="7.22039200"><ele></ele><time>2014-4-20T18:14:6Z</time></trkpt>
<trkpt lat="46.63501400" lon="7.22049000"><ele></ele><time>2014-4-20T18:14:9Z</time></trkpt>
<trkpt lat="46.63495100" lon="7.22061000"><ele></ele><time>2014-4-20T18:14:12Z</time></trkpt>
<trkpt lat="46.63488000" lon="7.22070800"><ele></ele><time>2014-4-20T18:14:15Z</time></trkpt>
<trkpt lat="46.63478500" lon="7.22072700"><ele></ele><time>2014-4-20T18:14:18Z</time></trkpt>
<trkpt lat="46.63472500" lon="7.22072600"><ele></ele><time>2014-4-20T18:14:21Z</time></trkpt>
<trkpt lat="46.63470100" lon="7.22074100"><ele></ele><time>2014-4-20T18:14:24Z</time></trkpt>
<trkpt lat="46.63462000" lon="7.22082100"><ele></ele><time>2014-4-20T18:14:27Z</time></trkpt>
<trkpt lat="46.63455100" lon="7.22085400"><ele></ele><time>2014-4-20T18:14:30Z</time></trkpt>
<trkpt lat="46.63446200" lon="7.22090700"><ele></ele><time>2014-4-20T18:14:33Z</time></trkpt>
<trkpt lat="46.63439100" lon="7.22093500"><ele></ele><time>2014-4-20T18:14:36Z</time></trkpt>
<trkpt lat="46.63430600" lon="7.22098900"><ele></ele><time>2014-4-20T18:14:39Z</time></trkpt>
<trkpt lat="46.63423400" lon="7.22104200"><ele></ele><time>2014-4-20T18:14:42Z</time></trkpt>
<trkpt lat="46.63415700" lon="7.22109200"><ele></ele><time>2014-4-20T18:14:45Z</time></trkpt>
<trkpt lat="46.63411500" lon="7.22111800"><ele></ele><time>2014-4-20T18:14:48Z</time></trkpt>
<trkpt lat="46.63401900" lon="7.22116200"><ele></ele><time>2014-4-20T18:14:51Z</time></trkpt>
<trkpt lat="46.63392900" lon="7.22120600"><ele></ele><time>2014-4-20T18:14:54Z</time></trkpt>
<trkpt lat="46.63382000" lon="7.22126300"><ele></ele><time>2014-4-20T18:14:57Z</time></trkpt>
<trkpt lat="46.63369800" lon="7.22132000"><ele></ele><time>2014-4-20T18:15:0Z</time></trkpt>
<trkpt lat="46.63359000" lon="7.22134000"><ele></ele><time>2014-4-20T18:15:3Z</time></trkpt>
<trkpt lat="46.63343400" lon="7.22134200"><ele></ele><time>2014-4-20T18:15:6Z</time></trkpt>
<trkpt lat="46.63334800" lon="7.22140500"><ele></ele><time>2014-4-20T18:15:9Z</time></trkpt>
<trkpt lat="46.63328600" lon="7.22152200"><ele></ele><time>2014-4-20T18:15:12Z</time></trkpt>
<trkpt lat="46.63320400" lon="7.22162900"><ele></ele><time>2014-4-20T18:15:15Z</time></trkpt>
<trkpt lat="46.63318500" lon="7.22164500"><ele></ele><time>2014-4-20T18:15:18Z</time></trkpt>
<trkpt lat="46.63309800" lon="7.22174300"><ele></ele><time>2014-4-20T18:15:21Z</time></trkpt>
<trkpt lat="46.63299400" lon="7.22183900"><ele></ele><time>2014-4-20T18:15:24Z</time></trkpt>
<trkpt lat="46.63289800" lon="7.22193900"><ele></ele><time>2014-4-20T18:15:27Z</time></trkpt>
<trkpt lat="46.63278700" lon="7.22198900"><ele></ele><time>2014-4-20T18:15:30Z</time></trkpt>
<trkpt lat="46.63267700" lon="7.22200700"><ele></ele><time>2014-4-20T18:15:33Z</time></trkpt>
<trkpt lat="46.63262800" lon="7.22201000"><ele></ele><time>2014-4-20T18:15:36Z</time></trkpt>
<trkpt lat="46.63250700" lon="7.22202300"><ele></ele><time>2014-4-20T18:15:39Z</time></trkpt>
<trkpt lat="46.63240500" lon="7.22202600"><ele></ele><time>2014-4-20T18:15:42Z</time></trkpt>
<trkpt lat="46.63229400" lon="7.22205100"><ele></ele><time>2014-4-20T18:15:45Z</time></trkpt>
<trkpt lat="46.63215000" lon="7.22209800"><ele></ele><time>2014-4-20T18:15:48Z</time></trkpt>
<trkpt lat="46.63204400" lon="7.22207700"><ele></ele><time>2014-4-20T18:15:51Z</time></trkpt>
<trkpt lat="46.63204100" lon="7.22203500"><ele></ele><time>2014-4-20T18:15:54Z</time></trkpt>
<trkpt lat="46.63206400" lon="7.22193900"><ele></ele><time>2014-4-20T18:15:57Z</time></trkpt>
<trkpt lat="46.63218000" lon="7.22185700"><ele></ele><time>2014-4-20T18:16:0Z</time></trkpt>
<trkpt lat="46.63233300" lon="7.22176700"><ele></ele><time>2014-4-20T18:16:3Z</time></trkpt>
<trkpt lat="46.63246800" lon="7.22165200"><ele></ele><time>2014-4-20T18:16:6Z</time></trkpt>
<trkpt lat="46.63252400" lon="7.22151700"><ele></ele><time>2014-4-20T18:16:9Z</time></trkpt>
<trkpt lat="46.63256700" lon="7.22138200"><ele></ele><time>2014-4-20T18:16:12Z</time></trkpt>
<trkpt lat="46.63258700" lon="7.22130800"><ele></ele><time>2014-4-20T18:16:15Z</time></trkpt>
<trkpt lat="46.63262200" lon="7.22117600"><ele></ele><time>2014-4-20T18:16:18Z</time></trkpt>
<trkpt lat="46.63266400" lon="7.22103500"><ele></ele><time>2014-4-20T18:16:21Z</time></trkpt>
<trkpt lat="46.63271600" lon="7.22085500"><ele></ele><time>2014-4-20T18:16:24Z</time></trkpt>
<trkpt lat="46.63275400" lon="7.22070800"><ele></ele><time>2014-4-20T18:16:27Z</time></trkpt>
<trkpt lat="46.63281000" lon="7.22051800"><ele></ele><time>2014-4-20T18:16:30Z</time></trkpt>
<trkpt lat="46.63286100" lon="7.22038700"><ele></ele><time>2014-4-20T18:16:33Z</time></trkpt>
<trkpt lat="46.63293000" lon="7.22025600"><ele></ele><time>2014-4-20T18:16:36Z</time></trkpt>
<trkpt lat="46.63301500" lon="7.22013300"><ele></ele><time>2014-4-20T18:16:39Z</time></trkpt>
<trkpt lat="46.63310000" lon="7.22003100"><ele></ele><time>2014-4-20T18:16:42Z</time></trkpt>
<trkpt lat="46.63321200" lon="7.21992400"><ele></ele><time>2014-4-20T18:16:45Z</time></trkpt>
<trkpt lat="46.63328300" lon="7.21984500"><ele></ele><time>2014-4-20T18:16:48Z</time></trkpt>
<trkpt lat="46.63338000" lon="7.21975100"><ele></ele><time>2014-4-20T18:16:51Z</time></trkpt>
<trkpt lat="46.63347200" lon="7.21965300"><ele></ele><time>2014-4-20T18:16:54Z</time></trkpt>
<trkpt lat="46.63356900" lon="7.21953600"><ele></ele><time>2014-4-20T18:16:57Z</time></trkpt>
<trkpt lat="46.63362600" lon="7.21939400"><ele></ele><time>2014-4-20T18:17:0Z</time></trkpt>
<trkpt lat="46.63370200" lon="7.21923900"><ele></ele><time>2014-4-20T18:17:3Z</time></trkpt>
<trkpt lat="46.63376900" lon="7.21909500"><ele></ele><time>2014-4-20T18:17:6Z</time></trkpt>
<trkpt lat="46.63380900" lon="7.21899200"><ele></ele><time>2014-4-20T18:17:9Z</time></trkpt>
<trkpt lat="46.63377500" lon="7.21887600"><ele></ele><time>2014-4-20T18:17:12Z</time></trkpt>
<trkpt lat="46.63376500" lon="7.21886300"><ele></ele><time>2014-4-20T18:17:15Z</time></trkpt>
<trkpt lat="46.63369000" lon="7.21872600"><ele></ele><time>2014-4-20T18:17:18Z</time></trkpt>
<trkpt lat="46.63360400" lon="7.21857600"><ele></ele><time>2014-4-20T18:17:21Z</time></trkpt>
<trkpt lat="46.63354900" lon="7.21844200"><ele></ele><time>2014-4-20T18:17:24Z</time></trkpt>
<trkpt lat="46.63350500" lon="7.21824800"><ele></ele><time>2014-4-20T18:17:27Z</time></trkpt>
<trkpt lat="46.63348400" lon="7.21818200"><ele></ele><time>2014-4-20T18:17:30Z</time></trkpt>
<trkpt lat="46.63347000" lon="7.21802700"><ele></ele><time>2014-4-20T18:17:33Z</time></trkpt>
<trkpt lat="46.63346400" lon="7.21790500"><ele></ele><time>2014-4-20T18:17:36Z</time></trkpt>
<trkpt lat="46.63347800" lon="7.21775400"><ele></ele><time>2014-4-20T18:17:39Z</time></trkpt>
<trkpt lat="46.63349500" lon="7.21763400"><ele></ele><time>2014-4-20T18:17:42Z</time></trkpt>
<trkpt lat="46.63351200" lon="7.21751800"><ele></ele><time>2014-4-20T18:17:45Z</time></trkpt>
<trkpt lat="46.63353000" lon="7.21739900"><ele></ele><time>2014-4-20T18:17:48Z</time></trkpt>
<trkpt lat="46.63354900" lon="7.21731800"><ele></ele><time>2014-4-20T18:17:51Z</time></trkpt>
<trkpt lat="46.63358300" lon="7.21717900"><ele></ele><time>2014-4-20T18:17:54Z</time></trkpt>
<trkpt lat="46.63360100" lon="7.21710100"><ele></ele><time>2014-4-20T18:17:57Z</time></trkpt>
<trkpt lat="46.63366200" lon="7.21694100"><ele></ele><time>2014-4-20T18:18:0Z</time></trkpt>
<trkpt lat="46.63370400" lon="7.21683800"><ele></ele><time>2014-4-20T18:18:3Z</time></trkpt>
<trkpt lat="46.63371500" lon="7.21668800"><ele></ele><time>2014-4-20T18:18:6Z</time></trkpt>
<trkpt lat="46.63369000" lon="7.21654500"><ele></ele><time>2014-4-20T18:18:9Z</time></trkpt>
<trkpt lat="46.63365700" lon="7.21640000"><ele></ele><time>2014-4-20T18:18:12Z</time></trkpt>
<trkpt lat="46.63365700" lon="7.21636200"><ele></ele><time>2014-4-20T18:18:15Z</time></trkpt>
<trkpt lat="46.63363100" lon="7.21619800"><ele></ele><time>2014-4-20T18:18:18Z</time></trkpt>
<trkpt lat="46.63361700" lon="7.21603900"><ele></ele><time>2014-4-20T18:18:21Z</time></trkpt>
<trkpt lat="46.63359400" lon="7.21589500"><ele></ele><time>2014-4-20T18:18:24Z</time></trkpt>
<trkpt lat="46.63357800" lon="7.21573800"><ele></ele><time>2014-4-20T18:18:27Z</time></trkpt>
<trkpt lat="46.63357900" lon="7.21563800"><ele></ele><time>2014-4-20T18:18:30Z</time></trkpt>
<trkpt lat="46.63355800" lon="7.21547600"><ele></ele><time>2014-4-20T18:18:33Z</time></trkpt>
<trkpt lat="46.63354200" lon="7.21532800"><ele></ele><time>2014-4-20T18:18:36Z</time></trkpt>
<trkpt lat="46.63350900" lon="7.21517500"><ele></ele><time>2014-4-20T18:18:39Z</time></trkpt>
<trkpt lat="46.63345300" lon="7.21504900"><ele></ele><time>2014-4-20T18:18:42Z</time></trkpt>
<trkpt lat="46.63339700" lon="7.21488300"><ele></ele><time>2014-4-20T18:18:45Z</time></trkpt>
<trkpt lat="46.63335200" lon="7.21476600"><ele></ele><time>2014-4-20T18:18:48Z</time></trkpt>
<trkpt lat="46.63333700" lon="7.21458000"><ele></ele><time>2014-4-20T18:18:51Z</time></trkpt>
<trkpt lat="46.63332300" lon="7.21441200"><ele></ele><time>2014-4-20T18:18:54Z</time></trkpt>
<trkpt lat="46.63338100" lon="7.21428900"><ele></ele><time>2014-4-20T18:18:57Z</time></trkpt>
<trkpt lat="46.63348300" lon="7.21423100"><ele></ele><time>2014-4-20T18:19:0Z</time></trkpt>
<trkpt lat="46.63360300" lon="7.21419400"><ele></ele><time>2014-4-20T18:19:3Z</time></trkpt>
<trkpt lat="46.63371100" lon="7.21415500"><ele></ele><time>2014-4-20T18:19:6Z</time></trkpt>
<trkpt lat="46.63383500" lon="7.21409700"><ele></ele><time>2014-4-20T18:19:9Z</time></trkpt>
<trkpt lat="46.63390300" lon="7.21404800"><ele></ele><time>2014-4-20T18:19:12Z</time></trkpt>
<trkpt lat="46.63405000" lon="7.21399700"><ele></ele><time>2014-4-20T18:19:15Z</time></trkpt>
<trkpt lat="46.63414300" lon="7.21402400"><ele></ele><time>2014-4-20T18:19:18Z</time></trkpt>
<trkpt lat="46.63426100" lon="7.21405500"><ele></ele><time>2014-4-20T18:19:21Z</time></trkpt>
<trkpt lat="46.63438700" lon="7.21407100"><ele></ele><time>2014-4-20T18:19:24Z</time></trkpt>
<trkpt lat="46.63451000" lon="7.21408100"><ele></ele><time>2014-4-20T18:19:27Z</time></trkpt>
<trkpt lat="46.63465400" lon="7.21408300"><ele></ele><time>2014-4-20T18:19:30Z</time></trkpt>
<trkpt lat="46.63480100" lon="7.21405900"><ele></ele><time>2014-4-20T18:19:33Z</time></trkpt>
<trkpt lat="46.63484000" lon="7.21403800"><ele></ele><time>2014-4-20T18:19:36Z</time></trkpt>
<trkpt lat="46.63485600" lon="7.21401500"><ele></ele><time>2014-4-20T18:19:39Z</time></trkpt>
<trkpt lat="46.63485100" lon="7.21396900"><ele></ele><time>2014-4-20T18:19:42Z</time></trkpt>
<trkpt lat="46.63481300" lon="7.21390300"><ele></ele><time>2014-4-20T18:19:45Z</time></trkpt>
<trkpt lat="46.63470900" lon="7.21382600"><ele></ele><time>2014-4-20T18:19:48Z</time></trkpt>
<trkpt lat="46.63464600" lon="7.21374700"><ele></ele><time>2014-4-20T18:19:51Z</time></trkpt>
<trkpt lat="46.63457300" lon="7.21356000"><ele></ele><time>2014-4-20T18:19:54Z</time></trkpt>
<trkpt lat="46.63452500" lon="7.21344200"><ele></ele><time>2014-4-20T18:19:57Z</time></trkpt>
<trkpt lat="46.63448400" lon="7.21336600"><ele></ele><time>2014-4-20T18:20:0Z</time></trkpt>
<trkpt lat="46.63440600" lon="7.21324600"><ele></ele><time>2014-4-20T18:20:3Z</time></trkpt>
<trkpt lat="46.63432500" lon="7.21314500"><ele></ele><time>2014-4-20T18:20:6Z</time></trkpt>
<trkpt lat="46.63426200" lon="7.21305700"><ele></ele><time>2014-4-20T18:20:9Z</time></trkpt>
<trkpt lat="46.63417600" lon="7.21295100"><ele></ele><time>2014-4-20T18:20:12Z</time></trkpt>
<trkpt lat="46.63409200" lon="7.21286100"><ele></ele><time>2014-4-20T18:20:15Z</time></trkpt>
<trkpt lat="46.63401600" lon="7.21273200"><ele></ele><time>2014-4-20T18:20:18Z</time></trkpt>
<trkpt lat="46.63391500" lon="7.21257400"><ele></ele><time>2014-4-20T18:20:21Z</time></trkpt>
<trkpt lat="46.63382000" lon="7.21247600"><ele></ele><time>2014-4-20T18:20:24Z</time></trkpt>
<trkpt lat="46.63375000" lon="7.21239900"><ele></ele><time>2014-4-20T18:20:27Z</time></trkpt>
<trkpt lat="46.63366300" lon="7.21232800"><ele></ele><time>2014-4-20T18:20:30Z</time></trkpt>
<trkpt lat="46.63356900" lon="7.21228300"><ele></ele><time>2014-4-20T18:20:33Z</time></trkpt>
<trkpt lat="46.63349400" lon="7.21224700"><ele></ele><time>2014-4-20T18:20:36Z</time></trkpt>
<trkpt lat="46.63339100" lon="7.21220200"><ele></ele><time>2014-4-20T18:20:39Z</time></trkpt>
<trkpt lat="46.63330100" lon="7.21211700"><ele></ele><time>2014-4-20T18:20:42Z</time></trkpt>
<trkpt lat="46.63321200" lon="7.21203300"><ele></ele><time>2014-4-20T18:20:45Z</time></trkpt>
<trkpt lat="46.63312400" lon="7.21193200"><ele></ele><time>2014-4-20T18:20:48Z</time></trkpt>
<trkpt lat="46.63303400" lon="7.21181300"><ele></ele><time>2014-4-20T18:20:51Z</time></trkpt>
<trkpt lat="46.63297400" lon="7.21171000"><ele></ele><time>2014-4-20T18:20:54Z</time></trkpt>
<trkpt lat="46.63287100" lon="7.21160800"><ele></ele><time>2014-4-20T18:20:57Z</time></trkpt>
<trkpt lat="46.63277200" lon="7.21151400"><ele></ele><time>2014-4-20T18:21:0Z</time></trkpt>
<trkpt lat="46.63267400" lon="7.21141900"><ele></ele><time>2014-4-20T18:21:3Z</time></trkpt>
<trkpt lat="46.63256900" lon="7.21130700"><ele></ele><time>2014-4-20T18:21:6Z</time></trkpt>
<trkpt lat="46.63249600" lon="7.21121500"><ele></ele><time>2014-4-20T18:21:9Z</time></trkpt>
<trkpt lat="46.63239000" lon="7.21105500"><ele></ele><time>2014-4-20T18:21:12Z</time></trkpt>
<trkpt lat="46.63237800" lon="7.21103200"><ele></ele><time>2014-4-20T18:21:15Z</time></trkpt>
<trkpt lat="46.63236600" lon="7.21100800"><ele></ele><time>2014-4-20T18:21:18Z</time></trkpt>
<trkpt lat="46.63235900" lon="7.21099400"><ele></ele><time>2014-4-20T18:21:21Z</time></trkpt>
<trkpt lat="46.63228900" lon="7.21089100"><ele></ele><time>2014-4-20T18:21:24Z</time></trkpt>
<trkpt lat="46.63217200" lon="7.21077200"><ele></ele><time>2014-4-20T18:21:27Z</time></trkpt>
<trkpt lat="46.63205600" lon="7.21066500"><ele></ele><time>2014-4-20T18:21:30Z</time></trkpt>
<trkpt lat="46.63189900" lon="7.21049400"><ele></ele><time>2014-4-20T18:21:33Z</time></trkpt>
<trkpt lat="46.63177500" lon="7.21041500"><ele></ele><time>2014-4-20T18:21:36Z</time></trkpt>
<trkpt lat="46.63162300" lon="7.21022500"><ele></ele><time>2014-4-20T18:21:39Z</time></trkpt>
<trkpt lat="46.63142900" lon="7.21009100"><ele></ele><time>2014-4-20T18:21:42Z</time></trkpt>
<trkpt lat="46.63136700" lon="7.20999500"><ele></ele><time>2014-4-20T18:21:45Z</time></trkpt>
<trkpt lat="46.63138100" lon="7.20984300"><ele></ele><time>2014-4-20T18:21:48Z</time></trkpt>
<trkpt lat="46.63148500" lon="7.20965400"><ele></ele><time>2014-4-20T18:21:51Z</time></trkpt>
<trkpt lat="46.63148400" lon="7.20954300"><ele></ele><time>2014-4-20T18:21:54Z</time></trkpt>
<trkpt lat="46.63143100" lon="7.20942700"><ele></ele><time>2014-4-20T18:21:57Z</time></trkpt>
<trkpt lat="46.63137400" lon="7.20929400"><ele></ele><time>2014-4-20T18:22:0Z</time></trkpt>
<trkpt lat="46.63131400" lon="7.20915900"><ele></ele><time>2014-4-20T18:22:3Z</time></trkpt>
<trkpt lat="46.63124200" lon="7.20902500"><ele></ele><time>2014-4-20T18:22:6Z</time></trkpt>
<trkpt lat="46.63118500" lon="7.20890900"><ele></ele><time>2014-4-20T18:22:9Z</time></trkpt>
<trkpt lat="46.63116000" lon="7.20879900"><ele></ele><time>2014-4-20T18:22:12Z</time></trkpt>
<trkpt lat="46.63121000" lon="7.20870600"><ele></ele><time>2014-4-20T18:22:15Z</time></trkpt>
<trkpt lat="46.63122200" lon="7.20869100"><ele></ele><time>2014-4-20T18:22:18Z</time></trkpt>
<trkpt lat="46.63128000" lon="7.20856300"><ele></ele><time>2014-4-20T18:22:21Z</time></trkpt>
<trkpt lat="46.63128900" lon="7.20842200"><ele></ele><time>2014-4-20T18:22:24Z</time></trkpt>
<trkpt lat="46.63129700" lon="7.20825700"><ele></ele><time>2014-4-20T18:22:27Z</time></trkpt>
<trkpt lat="46.63130700" lon="7.20806800"><ele></ele><time>2014-4-20T18:22:30Z</time></trkpt>
<trkpt lat="46.63130900" lon="7.20791700"><ele></ele><time>2014-4-20T18:22:33Z</time></trkpt>
<trkpt lat="46.63130200" lon="7.20772200"><ele></ele><time>2014-4-20T18:22:36Z</time></trkpt>
<trkpt lat="46.63128800" lon="7.20751600"><ele></ele><time>2014-4-20T18:22:39Z</time></trkpt>
<trkpt lat="46.63131600" lon="7.20737700"><ele></ele><time>2014-4-20T18:22:42Z</time></trkpt>
<trkpt lat="46.63136900" lon="7.20724500"><ele></ele><time>2014-4-20T18:22:45Z</time></trkpt>
<trkpt lat="46.63141500" lon="7.20713100"><ele></ele><time>2014-4-20T18:22:48Z</time></trkpt>
<trkpt lat="46.63147200" lon="7.20698300"><ele></ele><time>2014-4-20T18:22:51Z</time></trkpt>
<trkpt lat="46.63151800" lon="7.20682700"><ele></ele><time>2014-4-20T18:22:54Z</time></trkpt>
<trkpt lat="46.63153700" lon="7.20670900"><ele></ele><time>2014-4-20T18:22:57Z</time></trkpt>
<trkpt lat="46.63156200" lon="7.20653700"><ele></ele><time>2014-4-20T18:23:0Z</time></trkpt>
<trkpt lat="46.63158900" lon="7.20638700"><ele></ele><time>2014-4-20T18:23:3Z</time></trkpt>
<trkpt lat="46.63162100" lon="7.20629600"><ele></ele><time>2014-4-20T18:23:6Z</time></trkpt>
<trkpt lat="46.63162500" lon="7.20620800"><ele></ele><time>2014-4-20T18:23:9Z</time></trkpt>
<trkpt lat="46.63162700" lon="7.20617600"><ele></ele><time>2014-4-20T18:23:12Z</time></trkpt>
<trkpt lat="46.63154300" lon="7.20626300"><ele></ele><time>2014-4-20T18:23:15Z</time></trkpt>
<trkpt lat="46.63150600" lon="7.20639600"><ele></ele><time>2014-4-20T18:23:18Z</time></trkpt>
<trkpt lat="46.63143500" lon="7.20654200"><ele></ele><time>2014-4-20T18:23:21Z</time></trkpt>
<trkpt lat="46.63134700" lon="7.20664400"><ele></ele><time>2014-4-20T18:23:24Z</time></trkpt>
<trkpt lat="46.63126900" lon="7.20668900"><ele></ele><time>2014-4-20T18:23:27Z</time></trkpt>
<trkpt lat="46.63117800" lon="7.20671700"><ele></ele><time>2014-4-20T18:23:30Z</time></trkpt>
<trkpt lat="46.63108800" lon="7.20673100"><ele></ele><time>2014-4-20T18:23:33Z</time></trkpt>
<trkpt lat="46.63099800" lon="7.20677700"><ele></ele><time>2014-4-20T18:23:36Z</time></trkpt>
<trkpt lat="46.63087700" lon="7.20680500"><ele></ele><time>2014-4-20T18:23:39Z</time></trkpt>
<trkpt lat="46.63077000" lon="7.20683400"><ele></ele><time>2014-4-20T18:23:42Z</time></trkpt>
<trkpt lat="46.63066000" lon="7.20688800"><ele></ele><time>2014-4-20T18:23:45Z</time></trkpt>
<trkpt lat="46.63055600" lon="7.20693300"><ele></ele><time>2014-4-20T18:23:48Z</time></trkpt>
<trkpt lat="46.63049400" lon="7.20701300"><ele></ele><time>2014-4-20T18:23:51Z</time></trkpt>
<trkpt lat="46.63045300" lon="7.20713500"><ele></ele><time>2014-4-20T18:23:54Z</time></trkpt>
<trkpt lat="46.63041700" lon="7.20727400"><ele></ele><time>2014-4-20T18:23:57Z</time></trkpt>
<trkpt lat="46.63038300" lon="7.20745200"><ele></ele><time>2014-4-20T18:24:0Z</time></trkpt>
<trkpt lat="46.63036700" lon="7.20766400"><ele></ele><time>2014-4-20T18:24:3Z</time></trkpt>
<trkpt lat="46.63035000" lon="7.20785200"><ele></ele><time>2014-4-20T18:24:6Z</time></trkpt>
<trkpt lat="46.63027500" lon="7.20794800"><ele></ele><time>2014-4-20T18:24:9Z</time></trkpt>
<trkpt lat="46.63016900" lon="7.20805100"><ele></ele><time>2014-4-20T18:24:12Z</time></trkpt>
<trkpt lat="46.63007500" lon="7.20807700"><ele></ele><time>2014-4-20T18:24:15Z</time></trkpt>
<trkpt lat="46.62998000" lon="7.20811700"><ele></ele><time>2014-4-20T18:24:18Z</time></trkpt>
<trkpt lat="46.62991800" lon="7.20813900"><ele></ele><time>2014-4-20T18:24:21Z</time></trkpt>
<trkpt lat="46.62988000" lon="7.20817100"><ele></ele><time>2014-4-20T18:24:24Z</time></trkpt>
<trkpt lat="46.62978900" lon="7.20827300"><ele></ele><time>2014-4-20T18:24:27Z</time></trkpt>
<trkpt lat="46.62977000" lon="7.20841600"><ele></ele><time>2014-4-20T18:24:30Z</time></trkpt>
<trkpt lat="46.62977300" lon="7.20843500"><ele></ele><time>2014-4-20T18:24:33Z</time></trkpt>
<trkpt lat="46.62984400" lon="7.20855500"><ele></ele><time>2014-4-20T18:24:36Z</time></trkpt>
<trkpt lat="46.62989800" lon="7.20865900"><ele></ele><time>2014-4-20T18:24:39Z</time></trkpt>
<trkpt lat="46.62989700" lon="7.20879500"><ele></ele><time>2014-4-20T18:24:42Z</time></trkpt>
<trkpt lat="46.62987800" lon="7.20893600"><ele></ele><time>2014-4-20T18:24:45Z</time></trkpt>
<trkpt lat="46.62984500" lon="7.20910900"><ele></ele><time>2014-4-20T18:24:48Z</time></trkpt>
<trkpt lat="46.62977700" lon="7.20928200"><ele></ele><time>2014-4-20T18:24:51Z</time></trkpt>
<trkpt lat="46.62972900" lon="7.20939800"><ele></ele><time>2014-4-20T18:24:54Z</time></trkpt>
<trkpt lat="46.62965200" lon="7.20958500"><ele></ele><time>2014-4-20T18:24:57Z</time></trkpt>
<trkpt lat="46.62957300" lon="7.20969800"><ele></ele><time>2014-4-20T18:25:0Z</time></trkpt>
<trkpt lat="46.62945100" lon="7.20978600"><ele></ele><time>2014-4-20T18:25:3Z</time></trkpt>
<trkpt lat="46.62937000" lon="7.20996500"><ele></ele><time>2014-4-20T18:25:6Z</time></trkpt>
<trkpt lat="46.62937700" lon="7.21014000"><ele></ele><time>2014-4-20T18:25:9Z</time></trkpt>
<trkpt lat="46.62934600" lon="7.21031300"><ele></ele><time>2014-4-20T18:25:12Z</time></trkpt>
<trkpt lat="46.62932800" lon="7.21052300"><ele></ele><time>2014-4-20T18:25:15Z</time></trkpt>
<trkpt lat="46.62934300" lon="7.21066200"><ele></ele><time>2014-4-20T18:25:18Z</time></trkpt>
<trkpt lat="46.62935500" lon="7.21088600"><ele></ele><time>2014-4-20T18:25:21Z</time></trkpt>
<trkpt lat="46.62937300" lon="7.21103900"><ele></ele><time>2014-4-20T18:25:24Z</time></trkpt>
<trkpt lat="46.62939300" lon="7.21122200"><ele></ele><time>2014-4-20T18:25:27Z</time></trkpt>
<trkpt lat="46.62948700" lon="7.21143100"><ele></ele><time>2014-4-20T18:25:30Z</time></trkpt>
<trkpt lat="46.62955400" lon="7.21154400"><ele></ele><time>2014-4-20T18:25:33Z</time></trkpt>
<trkpt lat="46.62968300" lon="7.21172400"><ele></ele><time>2014-4-20T18:25:36Z</time></trkpt>
<trkpt lat="46.62979100" lon="7.21189900"><ele></ele><time>2014-4-20T18:25:39Z</time></trkpt>
<trkpt lat="46.62989900" lon="7.21207100"><ele></ele><time>2014-4-20T18:25:42Z</time></trkpt>
<trkpt lat="46.63001300" lon="7.21222300"><ele></ele><time>2014-4-20T18:25:45Z</time></trkpt>
<trkpt lat="46.63008300" lon="7.21233400"><ele></ele><time>2014-4-20T18:25:48Z</time></trkpt>
<trkpt lat="46.63017300" lon="7.21250700"><ele></ele><time>2014-4-20T18:25:51Z</time></trkpt>
<trkpt lat="46.63027500" lon="7.21272600"><ele></ele><time>2014-4-20T18:25:54Z</time></trkpt>
<trkpt lat="46.63038600" lon="7.21291700"><ele></ele><time>2014-4-20T18:25:57Z</time></trkpt>
<trkpt lat="46.63043700" lon="7.21305000"><ele></ele><time>2014-4-20T18:26:0Z</time></trkpt>
<trkpt lat="46.63043900" lon="7.21305900"><ele></ele><time>2014-4-20T18:26:3Z</time></trkpt>
<trkpt lat="46.63042400" lon="7.21311000"><ele></ele><time>2014-4-20T18:26:6Z</time></trkpt>
<trkpt lat="46.63040300" lon="7.21318000"><ele></ele><time>2014-4-20T18:26:9Z</time></trkpt>
<trkpt lat="46.63034700" lon="7.21331800"><ele></ele><time>2014-4-20T18:26:12Z</time></trkpt>
<trkpt lat="46.63027700" lon="7.21340000"><ele></ele><time>2014-4-20T18:26:15Z</time></trkpt>
<trkpt lat="46.63020300" lon="7.21345300"><ele></ele><time>2014-4-20T18:26:18Z</time></trkpt>
<trkpt lat="46.63011000" lon="7.21341400"><ele></ele><time>2014-4-20T18:26:21Z</time></trkpt>
<trkpt lat="46.62999600" lon="7.21338000"><ele></ele><time>2014-4-20T18:26:24Z</time></trkpt>
<trkpt lat="46.62990700" lon="7.21335600"><ele></ele><time>2014-4-20T18:26:27Z</time></trkpt>
<trkpt lat="46.62982900" lon="7.21332400"><ele></ele><time>2014-4-20T18:26:30Z</time></trkpt>
<trkpt lat="46.62970200" lon="7.21331100"><ele></ele><time>2014-4-20T18:26:33Z</time></trkpt>
<trkpt lat="46.62959600" lon="7.21325500"><ele></ele><time>2014-4-20T18:26:36Z</time></trkpt>
<trkpt lat="46.62951400" lon="7.21316500"><ele></ele><time>2014-4-20T18:26:39Z</time></trkpt>
<trkpt lat="46.62943600" lon="7.21305100"><ele></ele><time>2014-4-20T18:26:42Z</time></trkpt>
<trkpt lat="46.62935100" lon="7.21292700"><ele></ele><time>2014-4-20T18:26:45Z</time></trkpt>
<trkpt lat="46.62929300" lon="7.21281600"><ele></ele><time>2014-4-20T18:26:48Z</time></trkpt>
<trkpt lat="46.62922800" lon="7.21267600"><ele></ele><time>2014-4-20T18:26:51Z</time></trkpt>
<trkpt lat="46.62917600" lon="7.21254400"><ele></ele><time>2014-4-20T18:26:54Z</time></trkpt>
<trkpt lat="46.62909700" lon="7.21237900"><ele></ele><time>2014-4-20T18:26:57Z</time></trkpt>
<trkpt lat="46.62903400" lon="7.21228700"><ele></ele><time>2014-4-20T18:27:0Z</time></trkpt>
<trkpt lat="46.62893600" lon="7.21213700"><ele></ele><time>2014-4-20T18:27:3Z</time></trkpt>
<trkpt lat="46.62885500" lon="7.21202800"><ele></ele><time>2014-4-20T18:27:6Z</time></trkpt>
<trkpt lat="46.62875600" lon="7.21189500"><ele></ele><time>2014-4-20T18:27:9Z</time></trkpt>
<trkpt lat="46.62871400" lon="7.21183300"><ele></ele><time>2014-4-20T18:27:12Z</time></trkpt>
<trkpt lat="46.62863600" lon="7.21171500"><ele></ele><time>2014-4-20T18:27:15Z</time></trkpt>
<trkpt lat="46.62853000" lon="7.21157200"><ele></ele><time>2014-4-20T18:27:18Z</time></trkpt>
<trkpt lat="46.62840300" lon="7.21137600"><ele></ele><time>2014-4-20T18:27:21Z</time></trkpt>
<trkpt lat="46.62827400" lon="7.21116500"><ele></ele><time>2014-4-20T18:27:24Z</time></trkpt>
<trkpt lat="46.62818300" lon="7.21103600"><ele></ele><time>2014-4-20T18:27:27Z</time></trkpt>
<trkpt lat="46.62809300" lon="7.21090900"><ele></ele><time>2014-4-20T18:27:30Z</time></trkpt>
<trkpt lat="46.62798000" lon="7.21078100"><ele></ele><time>2014-4-20T18:27:33Z</time></trkpt>
<trkpt lat="46.62788700" lon="7.21068600"><ele></ele><time>2014-4-20T18:27:36Z</time></trkpt>
<trkpt lat="46.62782700" lon="7.21065100"><ele></ele><time>2014-4-20T18:27:39Z</time></trkpt>
<trkpt lat="46.62778000" lon="7.21061000"><ele></ele><time>2014-4-20T18:27:42Z</time></trkpt>
<trkpt lat="46.62773400" lon="7.21058200"><ele></ele><time>2014-4-20T18:27:45Z</time></trkpt>
<trkpt lat="46.62770100" lon="7.21056200"><ele></ele><time>2014-4-20T18:27:48Z</time></trkpt>
<trkpt lat="46.62763100" lon="7.21053300"><ele></ele><time>2014-4-20T18:27:51Z</time></trkpt>
<trkpt lat="46.62754200" lon="7.21050000"><ele></ele><time>2014-4-20T18:27:54Z</time></trkpt>
<trkpt lat="46.62753200" lon="7.21049800"><ele></ele><time>2014-4-20T18:27:57Z</time></trkpt>
<trkpt lat="46.62749300" lon="7.21051700"><ele></ele><time>2014-4-20T18:28:0Z</time></trkpt>
<trkpt lat="46.62740300" lon="7.21046900"><ele></ele><time>2014-4-20T18:28:3Z</time></trkpt>
<trkpt lat="46.62738400" lon="7.21045800"><ele></ele><time>2014-4-20T18:28:6Z</time></trkpt>
<trkpt lat="46.62737300" lon="7.21044100"><ele></ele><time>2014-4-20T18:28:9Z</time></trkpt>
<trkpt lat="46.62733300" lon="7.21041200"><ele></ele><time>2014-4-20T18:28:12Z</time></trkpt>
<trkpt lat="46.62723900" lon="7.21033000"><ele></ele><time>2014-4-20T18:28:15Z</time></trkpt>
<trkpt lat="46.62715500" lon="7.21025000"><ele></ele><time>2014-4-20T18:28:18Z</time></trkpt>
<trkpt lat="46.62708300" lon="7.21015200"><ele></ele><time>2014-4-20T18:28:21Z</time></trkpt>
<trkpt lat="46.62699500" lon="7.21001600"><ele></ele><time>2014-4-20T18:28:24Z</time></trkpt>
<trkpt lat="46.62692300" lon="7.20990700"><ele></ele><time>2014-4-20T18:28:27Z</time></trkpt>
<trkpt lat="46.62691600" lon="7.20989300"><ele></ele><time>2014-4-20T18:28:30Z</time></trkpt>
<trkpt lat="46.62684700" lon="7.20977600"><ele></ele><time>2014-4-20T18:28:33Z</time></trkpt>
<trkpt lat="46.62683000" lon="7.20975200"><ele></ele><time>2014-4-20T18:28:36Z</time></trkpt>
<trkpt lat="46.62676800" lon="7.20962200"><ele></ele><time>2014-4-20T18:28:39Z</time></trkpt>
<trkpt lat="46.62671900" lon="7.20950700"><ele></ele><time>2014-4-20T18:28:42Z</time></trkpt>
<trkpt lat="46.62664800" lon="7.20938300"><ele></ele><time>2014-4-20T18:28:45Z</time></trkpt>
<trkpt lat="46.62658800" lon="7.20928400"><ele></ele><time>2014-4-20T18:28:48Z</time></trkpt>
<trkpt lat="46.62654200" lon="7.20918800"><ele></ele><time>2014-4-20T18:28:51Z</time></trkpt>
<trkpt lat="46.62643900" lon="7.20904200"><ele></ele><time>2014-4-20T18:28:54Z</time></trkpt>
<trkpt lat="46.62635300" lon="7.20890500"><ele></ele><time>2014-4-20T18:28:57Z</time></trkpt>
<trkpt lat="46.62625600" lon="7.20878000"><ele></ele><time>2014-4-20T18:29:0Z</time></trkpt>
<trkpt lat="46.62616700" lon="7.20868600"><ele></ele><time>2014-4-20T18:29:3Z</time></trkpt>
<trkpt lat="46.62603800" lon="7.20854700"><ele></ele><time>2014-4-20T18:29:6Z</time></trkpt>
<trkpt lat="46.62595300" lon="7.20845800"><ele></ele><time>2014-4-20T18:29:9Z</time></trkpt>
<trkpt lat="46.62580900" lon="7.20829400"><ele></ele><time>2014-4-20T18:29:12Z</time></trkpt>
<trkpt lat="46.62571600" lon="7.20815600"><ele></ele><time>2014-4-20T18:29:15Z</time></trkpt>
<trkpt lat="46.62565000" lon="7.20800800"><ele></ele><time>2014-4-20T18:29:18Z</time></trkpt>
<trkpt lat="46.62558800" lon="7.20778800"><ele></ele><time>2014-4-20T18:29:21Z</time></trkpt>
<trkpt lat="46.62555000" lon="7.20758500"><ele></ele><time>2014-4-20T18:29:24Z</time></trkpt>
<trkpt lat="46.62553800" lon="7.20744900"><ele></ele><time>2014-4-20T18:29:27Z</time></trkpt>
<trkpt lat="46.62558300" lon="7.20729200"><ele></ele><time>2014-4-20T18:29:30Z</time></trkpt>
<trkpt lat="46.62569800" lon="7.20723000"><ele></ele><time>2014-4-20T18:29:33Z</time></trkpt>
<trkpt lat="46.62587500" lon="7.20728200"><ele></ele><time>2014-4-20T18:29:36Z</time></trkpt>
<trkpt lat="46.62593100" lon="7.20730500"><ele></ele><time>2014-4-20T18:29:39Z</time></trkpt>
<trkpt lat="46.62596500" lon="7.20731700"><ele></ele><time>2014-4-20T18:29:42Z</time></trkpt>
<trkpt lat="46.62605000" lon="7.20734800"><ele></ele><time>2014-4-20T18:29:45Z</time></trkpt>
<trkpt lat="46.62605700" lon="7.20735100"><ele></ele><time>2014-4-20T18:29:48Z</time></trkpt>
<trkpt lat="46.62607100" lon="7.20728600"><ele></ele><time>2014-4-20T18:29:51Z</time></trkpt>
<trkpt lat="46.62601400" lon="7.20726900"><ele></ele><time>2014-4-20T18:29:54Z</time></trkpt>
<trkpt lat="46.62594000" lon="7.20729300"><ele></ele><time>2014-4-20T18:29:57Z</time></trkpt>
<trkpt lat="46.62584300" lon="7.20726800"><ele></ele><time>2014-4-20T18:30:0Z</time></trkpt>
<trkpt lat="46.62572200" lon="7.20723700"><ele></ele><time>2014-4-20T18:30:3Z</time></trkpt>
<trkpt lat="46.62560600" lon="7.20729600"><ele></ele><time>2014-4-20T18:30:6Z</time></trkpt>
<trkpt lat="46.62556400" lon="7.20743500"><ele></ele><time>2014-4-20T18:30:9Z</time></trkpt>
<trkpt lat="46.62560000" lon="7.20777800"><ele></ele><time>2014-4-20T18:30:12Z</time></trkpt>
<trkpt lat="46.62562400" lon="7.20788600"><ele></ele><time>2014-4-20T18:30:15Z</time></trkpt>
<trkpt lat="46.62571000" lon="7.20812300"><ele></ele><time>2014-4-20T18:30:18Z</time></trkpt>
<trkpt lat="46.62579900" lon="7.20826800"><ele></ele><time>2014-4-20T18:30:21Z</time></trkpt>
<trkpt lat="46.62600600" lon="7.20853200"><ele></ele><time>2014-4-20T18:30:24Z</time></trkpt>
<trkpt lat="46.62617700" lon="7.20869300"><ele></ele><time>2014-4-20T18:30:27Z</time></trkpt>
<trkpt lat="46.62638600" lon="7.20896200"><ele></ele><time>2014-4-20T18:30:30Z</time></trkpt>
<trkpt lat="46.62651600" lon="7.20916300"><ele></ele><time>2014-4-20T18:30:33Z</time></trkpt>
<trkpt lat="46.62666300" lon="7.20941300"><ele></ele><time>2014-4-20T18:30:36Z</time></trkpt>
<trkpt lat="46.62682700" lon="7.20970300"><ele></ele><time>2014-4-20T18:30:39Z</time></trkpt>
<trkpt lat="46.62700000" lon="7.21000100"><ele></ele><time>2014-4-20T18:30:42Z</time></trkpt>
<trkpt lat="46.62723000" lon="7.21031600"><ele></ele><time>2014-4-20T18:30:45Z</time></trkpt>
<trkpt lat="46.62741400" lon="7.21048000"><ele></ele><time>2014-4-20T18:30:48Z</time></trkpt>
<trkpt lat="46.62757300" lon="7.21053200"><ele></ele><time>2014-4-20T18:30:51Z</time></trkpt>
<trkpt lat="46.62779800" lon="7.21063800"><ele></ele><time>2014-4-20T18:30:54Z</time></trkpt>
<trkpt lat="46.62792000" lon="7.21072800"><ele></ele><time>2014-4-20T18:30:57Z</time></trkpt>
<trkpt lat="46.62814000" lon="7.21095400"><ele></ele><time>2014-4-20T18:31:0Z</time></trkpt>
<trkpt lat="46.62823600" lon="7.21108400"><ele></ele><time>2014-4-20T18:31:3Z</time></trkpt>
<trkpt lat="46.62841000" lon="7.21134600"><ele></ele><time>2014-4-20T18:31:6Z</time></trkpt>
<trkpt lat="46.62872500" lon="7.21181600"><ele></ele><time>2014-4-20T18:31:9Z</time></trkpt>
<trkpt lat="46.62889600" lon="7.21205100"><ele></ele><time>2014-4-20T18:31:12Z</time></trkpt>
<trkpt lat="46.62906200" lon="7.21228000"><ele></ele><time>2014-4-20T18:31:15Z</time></trkpt>
<trkpt lat="46.62919400" lon="7.21250600"><ele></ele><time>2014-4-20T18:31:18Z</time></trkpt>
<trkpt lat="46.62931500" lon="7.21282800"><ele></ele><time>2014-4-20T18:31:21Z</time></trkpt>
<trkpt lat="46.62941700" lon="7.21300900"><ele></ele><time>2014-4-20T18:31:24Z</time></trkpt>
<trkpt lat="46.62956100" lon="7.21322100"><ele></ele><time>2014-4-20T18:31:27Z</time></trkpt>
<trkpt lat="46.62972900" lon="7.21332400"><ele></ele><time>2014-4-20T18:31:30Z</time></trkpt>
<trkpt lat="46.62987400" lon="7.21335800"><ele></ele><time>2014-4-20T18:31:33Z</time></trkpt>
<trkpt lat="46.63019100" lon="7.21344500"><ele></ele><time>2014-4-20T18:31:36Z</time></trkpt>
<trkpt lat="46.63022900" lon="7.21344700"><ele></ele><time>2014-4-20T18:31:39Z</time></trkpt>
<trkpt lat="46.63035100" lon="7.21335300"><ele></ele><time>2014-4-20T18:31:42Z</time></trkpt>
<trkpt lat="46.63043500" lon="7.21303500"><ele></ele><time>2014-4-20T18:31:45Z</time></trkpt>
<trkpt lat="46.63035100" lon="7.21284600"><ele></ele><time>2014-4-20T18:31:48Z</time></trkpt>
<trkpt lat="46.63029600" lon="7.21275500"><ele></ele><time>2014-4-20T18:31:51Z</time></trkpt>
<trkpt lat="46.63019700" lon="7.21254200"><ele></ele><time>2014-4-20T18:31:54Z</time></trkpt>
<trkpt lat="46.63011300" lon="7.21238800"><ele></ele><time>2014-4-20T18:31:57Z</time></trkpt>
<trkpt lat="46.63006100" lon="7.21229300"><ele></ele><time>2014-4-20T18:32:0Z</time></trkpt>
<trkpt lat="46.62976100" lon="7.21183600"><ele></ele><time>2014-4-20T18:32:3Z</time></trkpt>
<trkpt lat="46.62962200" lon="7.21161100"><ele></ele><time>2014-4-20T18:32:6Z</time></trkpt>
<trkpt lat="46.62945600" lon="7.21136000"><ele></ele><time>2014-4-20T18:32:9Z</time></trkpt>
<trkpt lat="46.62939600" lon="7.21119600"><ele></ele><time>2014-4-20T18:32:12Z</time></trkpt>
<trkpt lat="46.62935200" lon="7.21090100"><ele></ele><time>2014-4-20T18:32:15Z</time></trkpt>
<trkpt lat="46.62932000" lon="7.21055800"><ele></ele><time>2014-4-20T18:32:18Z</time></trkpt>
<trkpt lat="46.62932500" lon="7.21035200"><ele></ele><time>2014-4-20T18:32:21Z</time></trkpt>
<trkpt lat="46.62936000" lon="7.21001400"><ele></ele><time>2014-4-20T18:32:24Z</time></trkpt>
<trkpt lat="46.62938800" lon="7.20983600"><ele></ele><time>2014-4-20T18:32:27Z</time></trkpt>
<trkpt lat="46.62951600" lon="7.20967800"><ele></ele><time>2014-4-20T18:32:30Z</time></trkpt>
<trkpt lat="46.62967200" lon="7.20948800"><ele></ele><time>2014-4-20T18:32:33Z</time></trkpt>
<trkpt lat="46.62981200" lon="7.20913900"><ele></ele><time>2014-4-20T18:32:36Z</time></trkpt>
<trkpt lat="46.62987600" lon="7.20886000"><ele></ele><time>2014-4-20T18:32:39Z</time></trkpt>
<trkpt lat="46.62986900" lon="7.20860000"><ele></ele><time>2014-4-20T18:32:42Z</time></trkpt>
<trkpt lat="46.62977400" lon="7.20840700"><ele></ele><time>2014-4-20T18:32:45Z</time></trkpt>
<trkpt lat="46.62979200" lon="7.20823800"><ele></ele><time>2014-4-20T18:32:48Z</time></trkpt>
<trkpt lat="46.62989200" lon="7.20812900"><ele></ele><time>2014-4-20T18:32:51Z</time></trkpt>
<trkpt lat="46.63011300" lon="7.20802700"><ele></ele><time>2014-4-20T18:32:54Z</time></trkpt>
<trkpt lat="46.63017400" lon="7.20800100"><ele></ele><time>2014-4-20T18:32:57Z</time></trkpt>
<trkpt lat="46.63029700" lon="7.20791400"><ele></ele><time>2014-4-20T18:33:0Z</time></trkpt>
<trkpt lat="46.63038100" lon="7.20771900"><ele></ele><time>2014-4-20T18:33:3Z</time></trkpt>
<trkpt lat="46.63038900" lon="7.20745900"><ele></ele><time>2014-4-20T18:33:6Z</time></trkpt>
<trkpt lat="46.63046600" lon="7.20709400"><ele></ele><time>2014-4-20T18:33:9Z</time></trkpt>
<trkpt lat="46.63048200" lon="7.20703700"><ele></ele><time>2014-4-20T18:33:12Z</time></trkpt>
<trkpt lat="46.63061000" lon="7.20688200"><ele></ele><time>2014-4-20T18:33:15Z</time></trkpt>
<trkpt lat="46.63077500" lon="7.20680300"><ele></ele><time>2014-4-20T18:33:18Z</time></trkpt>
<trkpt lat="46.63093700" lon="7.20679200"><ele></ele><time>2014-4-20T18:33:21Z</time></trkpt>
<trkpt lat="46.63117300" lon="7.20669100"><ele></ele><time>2014-4-20T18:33:24Z</time></trkpt>
<trkpt lat="46.63136000" lon="7.20660600"><ele></ele><time>2014-4-20T18:33:27Z</time></trkpt>
<trkpt lat="46.63149700" lon="7.20643500"><ele></ele><time>2014-4-20T18:33:30Z</time></trkpt>
<trkpt lat="46.63156000" lon="7.20625700"><ele></ele><time>2014-4-20T18:33:33Z</time></trkpt>
<trkpt lat="46.63158100" lon="7.20620900"><ele></ele><time>2014-4-20T18:33:36Z</time></trkpt>
<trkpt lat="46.63160000" lon="7.20615700"><ele></ele><time>2014-4-20T18:33:39Z</time></trkpt>
<trkpt lat="46.63160400" lon="7.20613400"><ele></ele><time>2014-4-20T18:33:42Z</time></trkpt>
<trkpt lat="46.63159200" lon="7.20594800"><ele></ele><time>2014-4-20T18:33:45Z</time></trkpt>
<trkpt lat="46.63153100" lon="7.20574700"><ele></ele><time>2014-4-20T18:33:48Z</time></trkpt>
<trkpt lat="46.63148200" lon="7.20562300"><ele></ele><time>2014-4-20T18:33:51Z</time></trkpt>
<trkpt lat="46.63145600" lon="7.20554100"><ele></ele><time>2014-4-20T18:33:54Z</time></trkpt>
<trkpt lat="46.63141700" lon="7.20537300"><ele></ele><time>2014-4-20T18:33:57Z</time></trkpt>
<trkpt lat="46.63141200" lon="7.20528300"><ele></ele><time>2014-4-20T18:34:0Z</time></trkpt>
<trkpt lat="46.63141800" lon="7.20519700"><ele></ele><time>2014-4-20T18:34:3Z</time></trkpt>
<trkpt lat="46.63146200" lon="7.20511400"><ele></ele><time>2014-4-20T18:34:6Z</time></trkpt>
<trkpt lat="46.63154000" lon="7.20505800"><ele></ele><time>2014-4-20T18:34:9Z</time></trkpt>
<trkpt lat="46.63158200" lon="7.20503000"><ele></ele><time>2014-4-20T18:34:12Z</time></trkpt>
<trkpt lat="46.63160300" lon="7.20510100"><ele></ele><time>2014-4-20T18:34:15Z</time></trkpt>
<trkpt lat="46.63159500" lon="7.20508800"><ele></ele><time>2014-4-20T18:34:18Z</time></trkpt>
<trkpt lat="46.63159500" lon="7.20508400"><ele></ele><time>2014-4-20T18:34:21Z</time></trkpt>
<trkpt lat="46.63156400" lon="7.20504900"><ele></ele><time>2014-4-20T18:34:24Z</time></trkpt>
<trkpt lat="46.63146900" lon="7.20505400"><ele></ele><time>2014-4-20T18:34:27Z</time></trkpt>
<trkpt lat="46.63144500" lon="7.20505700"><ele></ele><time>2014-4-20T18:34:30Z</time></trkpt>
<trkpt lat="46.63140100" lon="7.20495800"><ele></ele><time>2014-4-20T18:34:33Z</time></trkpt>
<trkpt lat="46.63141400" lon="7.20490900"><ele></ele><time>2014-4-20T18:34:36Z</time></trkpt>
<trkpt lat="46.63143100" lon="7.20470000"><ele></ele><time>2014-4-20T18:34:39Z</time></trkpt>
<trkpt lat="46.63139100" lon="7.20444600"><ele></ele><time>2014-4-20T18:34:42Z</time></trkpt>
<trkpt lat="46.63133400" lon="7.20418700"><ele></ele><time>2014-4-20T18:34:45Z</time></trkpt>
<trkpt lat="46.63129700" lon="7.20395500"><ele></ele><time>2014-4-20T18:34:48Z</time></trkpt>
<trkpt lat="46.63123000" lon="7.20375400"><ele></ele><time>2014-4-20T18:34:51Z</time></trkpt>
<trkpt lat="46.63121000" lon="7.20372500"><ele></ele><time>2014-4-20T18:34:54Z</time></trkpt>
<trkpt lat="46.63113000" lon="7.20354400"><ele></ele><time>2014-4-20T18:34:57Z</time></trkpt>
<trkpt lat="46.63113200" lon="7.20344200"><ele></ele><time>2014-4-20T18:35:0Z</time></trkpt>
<trkpt lat="46.63110700" lon="7.20301400"><ele></ele><time>2014-4-20T18:35:3Z</time></trkpt>
<trkpt lat="46.63107100" lon="7.20255800"><ele></ele><time>2014-4-20T18:35:6Z</time></trkpt>
<trkpt lat="46.63103600" lon="7.20226600"><ele></ele><time>2014-4-20T18:35:9Z</time></trkpt>
<trkpt lat="46.63101500" lon="7.20203400"><ele></ele><time>2014-4-20T18:35:12Z</time></trkpt>
<trkpt lat="46.63103700" lon="7.20184800"><ele></ele><time>2014-4-20T18:35:15Z</time></trkpt>
<trkpt lat="46.63103600" lon="7.20158200"><ele></ele><time>2014-4-20T18:35:18Z</time></trkpt>
<trkpt lat="46.63103300" lon="7.20150700"><ele></ele><time>2014-4-20T18:35:21Z</time></trkpt>
<trkpt lat="46.63101900" lon="7.20139200"><ele></ele><time>2014-4-20T18:35:24Z</time></trkpt>
<trkpt lat="46.63098600" lon="7.20096500"><ele></ele><time>2014-4-20T18:35:27Z</time></trkpt>
<trkpt lat="46.63098000" lon="7.20071900"><ele></ele><time>2014-4-20T18:35:30Z</time></trkpt>
<trkpt lat="46.63098200" lon="7.20042100"><ele></ele><time>2014-4-20T18:35:33Z</time></trkpt>
<trkpt lat="46.63097700" lon="7.20027400"><ele></ele><time>2014-4-20T18:35:36Z</time></trkpt>
<trkpt lat="46.63096500" lon="7.20013500"><ele></ele><time>2014-4-20T18:35:39Z</time></trkpt>
<trkpt lat="46.63092500" lon="7.19977000"><ele></ele><time>2014-4-20T18:35:42Z</time></trkpt>
<trkpt lat="46.63091200" lon="7.19970700"><ele></ele><time>2014-4-20T18:35:45Z</time></trkpt>
<trkpt lat="46.63087700" lon="7.19958500"><ele></ele><time>2014-4-20T18:35:48Z</time></trkpt>
<trkpt lat="46.63084000" lon="7.19935200"><ele></ele><time>2014-4-20T18:35:51Z</time></trkpt>
<trkpt lat="46.63082800" lon="7.19918900"><ele></ele><time>2014-4-20T18:35:54Z</time></trkpt>
<trkpt lat="46.63082200" lon="7.19909000"><ele></ele><time>2014-4-20T18:35:57Z</time></trkpt>
<trkpt lat="46.63081800" lon="7.19904900"><ele></ele><time>2014-4-20T18:36:0Z</time></trkpt>
<trkpt lat="46.63080200" lon="7.19890900"><ele></ele><time>2014-4-20T18:36:3Z</time></trkpt>
<trkpt lat="46.63076200" lon="7.19872500"><ele></ele><time>2014-4-20T18:36:6Z</time></trkpt>
<trkpt lat="46.63072000" lon="7.19852200"><ele></ele><time>2014-4-20T18:36:9Z</time></trkpt>
<trkpt lat="46.63067300" lon="7.19811900"><ele></ele><time>2014-4-20T18:36:12Z</time></trkpt>
<trkpt lat="46.63066900" lon="7.19800100"><ele></ele><time>2014-4-20T18:36:15Z</time></trkpt>
<trkpt lat="46.63067200" lon="7.19798600"><ele></ele><time>2014-4-20T18:36:18Z</time></trkpt>
<trkpt lat="46.63068000" lon="7.19796500"><ele></ele><time>2014-4-20T18:36:21Z</time></trkpt>
<trkpt lat="46.63069600" lon="7.19793800"><ele></ele><time>2014-4-20T18:36:24Z</time></trkpt>
<trkpt lat="46.63071800" lon="7.19786200"><ele></ele><time>2014-4-20T18:36:27Z</time></trkpt>
<trkpt lat="46.63072800" lon="7.19782600"><ele></ele><time>2014-4-20T18:36:30Z</time></trkpt>
<trkpt lat="46.63075600" lon="7.19780400"><ele></ele><time>2014-4-20T18:36:33Z</time></trkpt>
<trkpt lat="46.63082800" lon="7.19781200"><ele></ele><time>2014-4-20T18:36:36Z</time></trkpt>
<trkpt lat="46.63086600" lon="7.19779500"><ele></ele><time>2014-4-20T18:36:39Z</time></trkpt>
<trkpt lat="46.63093200" lon="7.19779200"><ele></ele><time>2014-4-20T18:36:42Z</time></trkpt>
<trkpt lat="46.63097300" lon="7.19779800"><ele></ele><time>2014-4-20T18:36:45Z</time></trkpt>
<trkpt lat="46.63104200" lon="7.19781700"><ele></ele><time>2014-4-20T18:36:48Z</time></trkpt>
<trkpt lat="46.63110000" lon="7.19785400"><ele></ele><time>2014-4-20T18:36:51Z</time></trkpt>
<trkpt lat="46.63115200" lon="7.19789600"><ele></ele><time>2014-4-20T18:36:54Z</time></trkpt>
<trkpt lat="46.63120100" lon="7.19794700"><ele></ele><time>2014-4-20T18:36:57Z</time></trkpt>
<trkpt lat="46.63127200" lon="7.19799400"><ele></ele><time>2014-4-20T18:37:0Z</time></trkpt>
<trkpt lat="46.63136300" lon="7.19807200"><ele></ele><time>2014-4-20T18:37:3Z</time></trkpt>
<trkpt lat="46.63137300" lon="7.19808500"><ele></ele><time>2014-4-20T18:37:6Z</time></trkpt>
<trkpt lat="46.63139900" lon="7.19812300"><ele></ele><time>2014-4-20T18:37:9Z</time></trkpt>
<trkpt lat="46.63141400" lon="7.19813200"><ele></ele><time>2014-4-20T18:37:12Z</time></trkpt>
<trkpt lat="46.63149400" lon="7.19816300"><ele></ele><time>2014-4-20T18:37:15Z</time></trkpt>
<trkpt lat="46.63154300" lon="7.19819300"><ele></ele><time>2014-4-20T18:37:18Z</time></trkpt>
<trkpt lat="46.63161200" lon="7.19819700"><ele></ele><time>2014-4-20T18:37:21Z</time></trkpt>
<trkpt lat="46.63166100" lon="7.19823500"><ele></ele><time>2014-4-20T18:37:24Z</time></trkpt>
<trkpt lat="46.63180200" lon="7.19836400"><ele></ele><time>2014-4-20T18:37:27Z</time></trkpt>
<trkpt lat="46.63181400" lon="7.19837600"><ele></ele><time>2014-4-20T18:37:30Z</time></trkpt>
<trkpt lat="46.63192000" lon="7.19848400"><ele></ele><time>2014-4-20T18:37:33Z</time></trkpt>
<trkpt lat="46.63194100" lon="7.19850100"><ele></ele><time>2014-4-20T18:37:36Z</time></trkpt>
<trkpt lat="46.63206200" lon="7.19861700"><ele></ele><time>2014-4-20T18:37:39Z</time></trkpt>
<trkpt lat="46.63214600" lon="7.19868200"><ele></ele><time>2014-4-20T18:37:42Z</time></trkpt>
<trkpt lat="46.63223100" lon="7.19874800"><ele></ele><time>2014-4-20T18:37:45Z</time></trkpt>
<trkpt lat="46.63236400" lon="7.19883700"><ele></ele><time>2014-4-20T18:37:48Z</time></trkpt>
<trkpt lat="46.63251100" lon="7.19892700"><ele></ele><time>2014-4-20T18:37:51Z</time></trkpt>
<trkpt lat="46.63266300" lon="7.19903000"><ele></ele><time>2014-4-20T18:37:54Z</time></trkpt>
<trkpt lat="46.63279400" lon="7.19911800"><ele></ele><time>2014-4-20T18:37:57Z</time></trkpt>
<trkpt lat="46.63293500" lon="7.19920200"><ele></ele><time>2014-4-20T18:38:0Z</time></trkpt>
<trkpt lat="46.63296200" lon="7.19923700"><ele></ele><time>2014-4-20T18:38:3Z</time></trkpt>
<trkpt lat="46.63311000" lon="7.19934500"><ele></ele><time>2014-4-20T18:38:6Z</time></trkpt>
<trkpt lat="46.63324000" lon="7.19948100"><ele></ele><time>2014-4-20T18:38:9Z</time></trkpt>
<trkpt lat="46.63333600" lon="7.19959500"><ele></ele><time>2014-4-20T18:38:12Z</time></trkpt>
<trkpt lat="46.63343900" lon="7.19972000"><ele></ele><time>2014-4-20T18:38:15Z</time></trkpt>
<trkpt lat="46.63344900" lon="7.19972200"><ele></ele><time>2014-4-20T18:38:18Z</time></trkpt>
<trkpt lat="46.63342900" lon="7.19979100"><ele></ele><time>2014-4-20T18:38:21Z</time></trkpt>
<trkpt lat="46.63345100" lon="7.19983500"><ele></ele><time>2014-4-20T18:38:24Z</time></trkpt>
<trkpt lat="46.63355300" lon="7.19994600"><ele></ele><time>2014-4-20T18:38:27Z</time></trkpt>
<trkpt lat="46.63358700" lon="7.19999100"><ele></ele><time>2014-4-20T18:38:30Z</time></trkpt>
<trkpt lat="46.63371100" lon="7.20005600"><ele></ele><time>2014-4-20T18:38:33Z</time></trkpt>
<trkpt lat="46.63383400" lon="7.20014600"><ele></ele><time>2014-4-20T18:38:36Z</time></trkpt>
<trkpt lat="46.63397700" lon="7.20028200"><ele></ele><time>2014-4-20T18:38:39Z</time></trkpt>
<trkpt lat="46.63410200" lon="7.20039800"><ele></ele><time>2014-4-20T18:38:42Z</time></trkpt>
<trkpt lat="46.63434800" lon="7.20059700"><ele></ele><time>2014-4-20T18:38:45Z</time></trkpt>
<trkpt lat="46.63454500" lon="7.20075600"><ele></ele><time>2014-4-20T18:38:48Z</time></trkpt>
<trkpt lat="46.63472600" lon="7.20089500"><ele></ele><time>2014-4-20T18:38:51Z</time></trkpt>
<trkpt lat="46.63490800" lon="7.20098600"><ele></ele><time>2014-4-20T18:38:54Z</time></trkpt>
<trkpt lat="46.63506800" lon="7.20098500"><ele></ele><time>2014-4-20T18:38:57Z</time></trkpt>
<trkpt lat="46.63524100" lon="7.20100900"><ele></ele><time>2014-4-20T18:39:0Z</time></trkpt>
<trkpt lat="46.63529100" lon="7.20102700"><ele></ele><time>2014-4-20T18:39:3Z</time></trkpt>
<trkpt lat="46.63529700" lon="7.20103400"><ele></ele><time>2014-4-20T18:39:6Z</time></trkpt>
<trkpt lat="46.63529800" lon="7.20107000"><ele></ele><time>2014-4-20T18:39:9Z</time></trkpt>
<trkpt lat="46.63523900" lon="7.20118600"><ele></ele><time>2014-4-20T18:39:12Z</time></trkpt>
<trkpt lat="46.63523200" lon="7.20120800"><ele></ele><time>2014-4-20T18:39:15Z</time></trkpt>
<trkpt lat="46.63519600" lon="7.20135400"><ele></ele><time>2014-4-20T18:39:18Z</time></trkpt>
<trkpt lat="46.63517800" lon="7.20153700"><ele></ele><time>2014-4-20T18:39:21Z</time></trkpt>
<trkpt lat="46.63515300" lon="7.20167700"><ele></ele><time>2014-4-20T18:39:24Z</time></trkpt>
<trkpt lat="46.63508200" lon="7.20183700"><ele></ele><time>2014-4-20T18:39:27Z</time></trkpt>
<trkpt lat="46.63501300" lon="7.20195700"><ele></ele><time>2014-4-20T18:39:30Z</time></trkpt>
<trkpt lat="46.63491300" lon="7.20215000"><ele></ele><time>2014-4-20T18:39:33Z</time></trkpt>
<trkpt lat="46.63485400" lon="7.20229500"><ele></ele><time>2014-4-20T18:39:36Z</time></trkpt>
<trkpt lat="46.63483400" lon="7.20235500"><ele></ele><time>2014-4-20T18:39:39Z</time></trkpt>
<trkpt lat="46.63482000" lon="7.20256800"><ele></ele><time>2014-4-20T18:39:42Z</time></trkpt>
<trkpt lat="46.63481700" lon="7.20259400"><ele></ele><time>2014-4-20T18:39:45Z</time></trkpt>
<trkpt lat="46.63485100" lon="7.20266000"><ele></ele><time>2014-4-20T18:39:48Z</time></trkpt>
<trkpt lat="46.63489500" lon="7.20289900"><ele></ele><time>2014-4-20T18:39:51Z</time></trkpt>
<trkpt lat="46.63491000" lon="7.20296800"><ele></ele><time>2014-4-20T18:39:54Z</time></trkpt>
<trkpt lat="46.63492600" lon="7.20311200"><ele></ele><time>2014-4-20T18:39:57Z</time></trkpt>
<trkpt lat="46.63491900" lon="7.20333900"><ele></ele><time>2014-4-20T18:40:0Z</time></trkpt>
<trkpt lat="46.63488600" lon="7.20364300"><ele></ele><time>2014-4-20T18:40:3Z</time></trkpt>
<trkpt lat="46.63492500" lon="7.20385100"><ele></ele><time>2014-4-20T18:40:6Z</time></trkpt>
<trkpt lat="46.63496600" lon="7.20402700"><ele></ele><time>2014-4-20T18:40:9Z</time></trkpt>
<trkpt lat="46.63497700" lon="7.20431800"><ele></ele><time>2014-4-20T18:40:12Z</time></trkpt>
<trkpt lat="46.63495500" lon="7.20455800"><ele></ele><time>2014-4-20T18:40:15Z</time></trkpt>
<trkpt lat="46.63492600" lon="7.20468300"><ele></ele><time>2014-4-20T18:40:18Z</time></trkpt>
<trkpt lat="46.63496500" lon="7.20476200"><ele></ele><time>2014-4-20T18:40:21Z</time></trkpt>
<trkpt lat="46.63499700" lon="7.20466100"><ele></ele><time>2014-4-20T18:40:24Z</time></trkpt>
<trkpt lat="46.63506500" lon="7.20443400"><ele></ele><time>2014-4-20T18:40:27Z</time></trkpt>
<trkpt lat="46.63515400" lon="7.20421900"><ele></ele><time>2014-4-20T18:40:30Z</time></trkpt>
<trkpt lat="46.63520500" lon="7.20405200"><ele></ele><time>2014-4-20T18:40:33Z</time></trkpt>
<trkpt lat="46.63525600" lon="7.20401200"><ele></ele><time>2014-4-20T18:40:36Z</time></trkpt>
<trkpt lat="46.63531700" lon="7.20407800"><ele></ele><time>2014-4-20T18:40:39Z</time></trkpt>
<trkpt lat="46.63531300" lon="7.20410300"><ele></ele><time>2014-4-20T18:40:42Z</time></trkpt>
<trkpt lat="46.63530000" lon="7.20416300"><ele></ele><time>2014-4-20T18:40:45Z</time></trkpt>
<trkpt lat="46.63529600" lon="7.20435600"><ele></ele><time>2014-4-20T18:40:48Z</time></trkpt>
<trkpt lat="46.63530800" lon="7.20450100"><ele></ele><time>2014-4-20T18:40:51Z</time></trkpt>
<trkpt lat="46.63538300" lon="7.20475500"><ele></ele><time>2014-4-20T18:40:54Z</time></trkpt>
<trkpt lat="46.63539100" lon="7.20479300"><ele></ele><time>2014-4-20T18:40:57Z</time></trkpt>
<trkpt lat="46.63545700" lon="7.20501100"><ele></ele><time>2014-4-20T18:41:0Z</time></trkpt>
<trkpt lat="46.63553100" lon="7.20521700"><ele></ele><time>2014-4-20T18:41:3Z</time></trkpt>
<trkpt lat="46.63554500" lon="7.20538600"><ele></ele><time>2014-4-20T18:41:6Z</time></trkpt>
<trkpt lat="46.63554200" lon="7.20542300"><ele></ele><time>2014-4-20T18:41:9Z</time></trkpt>
<trkpt lat="46.63571000" lon="7.20559500"><ele></ele><time>2014-4-20T18:41:12Z</time></trkpt>
<trkpt lat="46.63572000" lon="7.20561300"><ele></ele><time>2014-4-20T18:41:15Z</time></trkpt>
<trkpt lat="46.63574600" lon="7.20547300"><ele></ele><time>2014-4-20T18:41:18Z</time></trkpt>
<trkpt lat="46.63577400" lon="7.20535500"><ele></ele><time>2014-4-20T18:41:21Z</time></trkpt>
<trkpt lat="46.63578400" lon="7.20527400"><ele></ele><time>2014-4-20T18:41:24Z</time></trkpt>
<trkpt lat="46.63574900" lon="7.20511500"><ele></ele><time>2014-4-20T18:41:27Z</time></trkpt>
<trkpt lat="46.63568000" lon="7.20497500"><ele></ele><time>2014-4-20T18:41:30Z</time></trkpt>
<trkpt lat="46.63568300" lon="7.20481400"><ele></ele><time>2014-4-20T18:41:33Z</time></trkpt>
<trkpt lat="46.63572700" lon="7.20462900"><ele></ele><time>2014-4-20T18:41:36Z</time></trkpt>
<trkpt lat="46.63575300" lon="7.20452900"><ele></ele><time>2014-4-20T18:41:39Z</time></trkpt>
<trkpt lat="46.63575400" lon="7.20452900"><ele></ele><time>2014-4-20T18:41:42Z</time></trkpt>
<trkpt lat="46.63583600" lon="7.20437300"><ele></ele><time>2014-4-20T18:41:45Z</time></trkpt>
<trkpt lat="46.63590500" lon="7.20407500"><ele></ele><time>2014-4-20T18:41:48Z</time></trkpt>
<trkpt lat="46.63597300" lon="7.20369800"><ele></ele><time>2014-4-20T18:41:51Z</time></trkpt>
<trkpt lat="46.63603000" lon="7.20343300"><ele></ele><time>2014-4-20T18:41:54Z</time></trkpt>
<trkpt lat="46.63610400" lon="7.20325600"><ele></ele><time>2014-4-20T18:41:57Z</time></trkpt>
<trkpt lat="46.63622300" lon="7.20313400"><ele></ele><time>2014-4-20T18:42:0Z</time></trkpt>
<trkpt lat="46.63641000" lon="7.20305300"><ele></ele><time>2014-4-20T18:42:3Z</time></trkpt>
<trkpt lat="46.63654600" lon="7.20308800"><ele></ele><time>2014-4-20T18:42:6Z</time></trkpt>
<trkpt lat="46.63671400" lon="7.20318500"><ele></ele><time>2014-4-20T18:42:9Z</time></trkpt>
<trkpt lat="46.63688000" lon="7.20337500"><ele></ele><time>2014-4-20T18:42:12Z</time></trkpt>
<trkpt lat="46.63708900" lon="7.20356200"><ele></ele><time>2014-4-20T18:42:15Z</time></trkpt>
<trkpt lat="46.63723200" lon="7.20368400"><ele></ele><time>2014-4-20T18:42:18Z</time></trkpt>
<trkpt lat="46.63732100" lon="7.20374800"><ele></ele><time>2014-4-20T18:42:21Z</time></trkpt>
<trkpt lat="46.63733000" lon="7.20375500"><ele></ele><time>2014-4-20T18:42:24Z</time></trkpt>
<trkpt lat="46.63744200" lon="7.20395500"><ele></ele><time>2014-4-20T18:42:27Z</time></trkpt>
<trkpt lat="46.63756700" lon="7.20410400"><ele></ele><time>2014-4-20T18:42:30Z</time></trkpt>
<trkpt lat="46.63769400" lon="7.20418700"><ele></ele><time>2014-4-20T18:42:33Z</time></trkpt>
<trkpt lat="46.63780100" lon="7.20419300"><ele></ele><time>2014-4-20T18:42:36Z</time></trkpt>
<trkpt lat="46.63800100" lon="7.20425500"><ele></ele><time>2014-4-20T18:42:39Z</time></trkpt>
<trkpt lat="46.63806100" lon="7.20431100"><ele></ele><time>2014-4-20T18:42:42Z</time></trkpt>
<trkpt lat="46.63818500" lon="7.20442200"><ele></ele><time>2014-4-20T18:42:45Z</time></trkpt>
<trkpt lat="46.63835200" lon="7.20454900"><ele></ele><time>2014-4-20T18:42:48Z</time></trkpt>
<trkpt lat="46.63853800" lon="7.20466300"><ele></ele><time>2014-4-20T18:42:51Z</time></trkpt>
<trkpt lat="46.63878600" lon="7.20480900"><ele></ele><time>2014-4-20T18:42:54Z</time></trkpt>
<trkpt lat="46.63901500" lon="7.20492600"><ele></ele><time>2014-4-20T18:42:57Z</time></trkpt>
<trkpt lat="46.63918700" lon="7.20500200"><ele></ele><time>2014-4-20T18:43:0Z</time></trkpt>
<trkpt lat="46.63939100" lon="7.20507600"><ele></ele><time>2014-4-20T18:43:3Z</time></trkpt>
<trkpt lat="46.63956900" lon="7.20509700"><ele></ele><time>2014-4-20T18:43:6Z</time></trkpt>
<trkpt lat="46.63973000" lon="7.20504400"><ele></ele><time>2014-4-20T18:43:9Z</time></trkpt>
<trkpt lat="46.63988300" lon="7.20492900"><ele></ele><time>2014-4-20T18:43:12Z</time></trkpt>
<trkpt lat="46.63992000" lon="7.20487000"><ele></ele><time>2014-4-20T18:43:15Z</time></trkpt>
<trkpt lat="46.64002200" lon="7.20489000"><ele></ele><time>2014-4-20T18:43:18Z</time></trkpt>
<trkpt lat="46.63999000" lon="7.20499500"><ele></ele><time>2014-4-20T18:43:21Z</time></trkpt>
<trkpt lat="46.63990300" lon="7.20513300"><ele></ele><time>2014-4-20T18:43:24Z</time></trkpt>
<trkpt lat="46.63981500" lon="7.20529200"><ele></ele><time>2014-4-20T18:43:27Z</time></trkpt>
<trkpt lat="46.63966900" lon="7.20561500"><ele></ele><time>2014-4-20T18:43:30Z</time></trkpt>
<trkpt lat="46.63949100" lon="7.20605600"><ele></ele><time>2014-4-20T18:43:33Z</time></trkpt>
<trkpt lat="46.63947400" lon="7.20609100"><ele></ele><time>2014-4-20T18:43:36Z</time></trkpt>
<trkpt lat="46.63935600" lon="7.20635800"><ele></ele><time>2014-4-20T18:43:39Z</time></trkpt>
<trkpt lat="46.63930600" lon="7.20648800"><ele></ele><time>2014-4-20T18:43:42Z</time></trkpt>
<trkpt lat="46.63931900" lon="7.20660000"><ele></ele><time>2014-4-20T18:43:45Z</time></trkpt>
<trkpt lat="46.63934400" lon="7.20662700"><ele></ele><time>2014-4-20T18:43:48Z</time></trkpt>
<trkpt lat="46.63945300" lon="7.20655500"><ele></ele><time>2014-4-20T18:43:51Z</time></trkpt>
<trkpt lat="46.63960500" lon="7.20644600"><ele></ele><time>2014-4-20T18:43:54Z</time></trkpt>
<trkpt lat="46.63981800" lon="7.20629300"><ele></ele><time>2014-4-20T18:43:57Z</time></trkpt>
<trkpt lat="46.64000300" lon="7.20617600"><ele></ele><time>2014-4-20T18:44:0Z</time></trkpt>
<trkpt lat="46.64017900" lon="7.20608100"><ele></ele><time>2014-4-20T18:44:3Z</time></trkpt>
<trkpt lat="46.64040400" lon="7.20598200"><ele></ele><time>2014-4-20T18:44:6Z</time></trkpt>
<trkpt lat="46.64050800" lon="7.20589100"><ele></ele><time>2014-4-20T18:44:9Z</time></trkpt>
<trkpt lat="46.64058900" lon="7.20580700"><ele></ele><time>2014-4-20T18:44:12Z</time></trkpt>
<trkpt lat="46.64076400" lon="7.20568000"><ele></ele><time>2014-4-20T18:44:15Z</time></trkpt>
<trkpt lat="46.64084900" lon="7.20560700"><ele></ele><time>2014-4-20T18:44:18Z</time></trkpt>
<trkpt lat="46.64097500" lon="7.20561700"><ele></ele><time>2014-4-20T18:44:21Z</time></trkpt>
<trkpt lat="46.64107200" lon="7.20565600"><ele></ele><time>2014-4-20T18:44:24Z</time></trkpt>
<trkpt lat="46.64109000" lon="7.20566700"><ele></ele><time>2014-4-20T18:44:27Z</time></trkpt>
<trkpt lat="46.64120300" lon="7.20569900"><ele></ele><time>2014-4-20T18:44:30Z</time></trkpt>
<trkpt lat="46.64127400" lon="7.20571600"><ele></ele><time>2014-4-20T18:44:33Z</time></trkpt>
<trkpt lat="46.64137600" lon="7.20570700"><ele></ele><time>2014-4-20T18:44:36Z</time></trkpt>
<trkpt lat="46.64153500" lon="7.20557200"><ele></ele><time>2014-4-20T18:44:39Z</time></trkpt>
<trkpt lat="46.64167400" lon="7.20543500"><ele></ele><time>2014-4-20T18:44:42Z</time></trkpt>
<trkpt lat="46.64178600" lon="7.20531200"><ele></ele><time>2014-4-20T18:44:45Z</time></trkpt>
<trkpt lat="46.64186800" lon="7.20520100"><ele></ele><time>2014-4-20T18:44:48Z</time></trkpt>
<trkpt lat="46.64196400" lon="7.20514300"><ele></ele><time>2014-4-20T18:44:51Z</time></trkpt>
<trkpt lat="46.64208900" lon="7.20509900"><ele></ele><time>2014-4-20T18:44:54Z</time></trkpt>
<trkpt lat="46.64229900" lon="7.20505500"><ele></ele><time>2014-4-20T18:44:57Z</time></trkpt>
<trkpt lat="46.64245000" lon="7.20496900"><ele></ele><time>2014-4-20T18:45:0Z</time></trkpt>
<trkpt lat="46.64254000" lon="7.20480700"><ele></ele><time>2014-4-20T18:45:3Z</time></trkpt>
<trkpt lat="46.64264300" lon="7.20463700"><ele></ele><time>2014-4-20T18:45:6Z</time></trkpt>
<trkpt lat="46.64275800" lon="7.20442600"><ele></ele><time>2014-4-20T18:45:9Z</time></trkpt>
<trkpt lat="46.64277700" lon="7.20438800"><ele></ele><time>2014-4-20T18:45:12Z</time></trkpt>
<trkpt lat="46.64286400" lon="7.20417300"><ele></ele><time>2014-4-20T18:45:15Z</time></trkpt>
<trkpt lat="46.64292100" lon="7.20406400"><ele></ele><time>2014-4-20T18:45:18Z</time></trkpt>
<trkpt lat="46.64304000" lon="7.20388900"><ele></ele><time>2014-4-20T18:45:21Z</time></trkpt>
<trkpt lat="46.64306200" lon="7.20386000"><ele></ele><time>2014-4-20T18:45:24Z</time></trkpt>
<trkpt lat="46.64317100" lon="7.20373200"><ele></ele><time>2014-4-20T18:45:27Z</time></trkpt>
<trkpt lat="46.64331900" lon="7.20359400"><ele></ele><time>2014-4-20T18:45:30Z</time></trkpt>
<trkpt lat="46.64339100" lon="7.20344100"><ele></ele><time>2014-4-20T18:45:33Z</time></trkpt>
<trkpt lat="46.64339300" lon="7.20331900"><ele></ele><time>2014-4-20T18:45:36Z</time></trkpt>
<trkpt lat="46.64343800" lon="7.20327800"><ele></ele><time>2014-4-20T18:45:39Z</time></trkpt>
<trkpt lat="46.64343800" lon="7.20328200"><ele></ele><time>2014-4-20T18:45:42Z</time></trkpt>
<trkpt lat="46.64342300" lon="7.20327200"><ele></ele><time>2014-4-20T18:45:45Z</time></trkpt>
<trkpt lat="46.64341900" lon="7.20327100"><ele></ele><time>2014-4-20T18:45:48Z</time></trkpt>
<trkpt lat="46.64341700" lon="7.20326900"><ele></ele><time>2014-4-20T18:45:51Z</time></trkpt>
<trkpt lat="46.64337500" lon="7.20309700"><ele></ele><time>2014-4-20T18:45:54Z</time></trkpt>
<trkpt lat="46.64344200" lon="7.20304200"><ele></ele><time>2014-4-20T18:45:57Z</time></trkpt>
<trkpt lat="46.64348000" lon="7.20308800"><ele></ele><time>2014-4-20T18:46:0Z</time></trkpt>
<trkpt lat="46.64351100" lon="7.20325300"><ele></ele><time>2014-4-20T18:46:3Z</time></trkpt>
<trkpt lat="46.64353000" lon="7.20348800"><ele></ele><time>2014-4-20T18:46:6Z</time></trkpt>
<trkpt lat="46.64352400" lon="7.20380200"><ele></ele><time>2014-4-20T18:46:9Z</time></trkpt>
<trkpt lat="46.64349700" lon="7.20408900"><ele></ele><time>2014-4-20T18:46:12Z</time></trkpt>
<trkpt lat="46.64347900" lon="7.20418800"><ele></ele><time>2014-4-20T18:46:15Z</time></trkpt>
<trkpt lat="46.64350500" lon="7.20440700"><ele></ele><time>2014-4-20T18:46:18Z</time></trkpt>
<trkpt lat="46.64360200" lon="7.20455100"><ele></ele><time>2014-4-20T18:46:21Z</time></trkpt>
<trkpt lat="46.64370300" lon="7.20477600"><ele></ele><time>2014-4-20T18:46:24Z</time></trkpt>
<trkpt lat="46.64371900" lon="7.20481700"><ele></ele><time>2014-4-20T18:46:27Z</time></trkpt>
<trkpt lat="46.64375300" lon="7.20497500"><ele></ele><time>2014-4-20T18:46:30Z</time></trkpt>
<trkpt lat="46.64375000" lon="7.20518400"><ele></ele><time>2014-4-20T18:46:33Z</time></trkpt>
<trkpt lat="46.64371400" lon="7.20536500"><ele></ele><time>2014-4-20T18:46:36Z</time></trkpt>
<trkpt lat="46.64371400" lon="7.20549300"><ele></ele><time>2014-4-20T18:46:39Z</time></trkpt>
<trkpt lat="46.64379500" lon="7.20549400"><ele></ele><time>2014-4-20T18:46:42Z</time></trkpt>
<trkpt lat="46.64381500" lon="7.20547500"><ele></ele><time>2014-4-20T18:46:45Z</time></trkpt>
<trkpt lat="46.64402700" lon="7.20523100"><ele></ele><time>2014-4-20T18:46:48Z</time></trkpt>
<trkpt lat="46.64412500" lon="7.20511000"><ele></ele><time>2014-4-20T18:46:51Z</time></trkpt>
<trkpt lat="46.64423400" lon="7.20492600"><ele></ele><time>2014-4-20T18:46:54Z</time></trkpt>
<trkpt lat="46.64430200" lon="7.20469200"><ele></ele><time>2014-4-20T18:46:57Z</time></trkpt>
<trkpt lat="46.64433800" lon="7.20441300"><ele></ele><time>2014-4-20T18:47:0Z</time></trkpt>
<trkpt lat="46.64435100" lon="7.20419400"><ele></ele><time>2014-4-20T18:47:3Z</time></trkpt>
<trkpt lat="46.64433300" lon="7.20396300"><ele></ele><time>2014-4-20T18:47:6Z</time></trkpt>
<trkpt lat="46.64438600" lon="7.20377700"><ele></ele><time>2014-4-20T18:47:9Z</time></trkpt>
<trkpt lat="46.64452700" lon="7.20364200"><ele></ele><time>2014-4-20T18:47:12Z</time></trkpt>
<trkpt lat="46.64463900" lon="7.20359300"><ele></ele><time>2014-4-20T18:47:15Z</time></trkpt>
<trkpt lat="46.64473000" lon="7.20374500"><ele></ele><time>2014-4-20T18:47:18Z</time></trkpt>
<trkpt lat="46.64477700" lon="7.20400400"><ele></ele><time>2014-4-20T18:47:21Z</time></trkpt>
<trkpt lat="46.64479800" lon="7.20424700"><ele></ele><time>2014-4-20T18:47:24Z</time></trkpt>
<trkpt lat="46.64484600" lon="7.20453100"><ele></ele><time>2014-4-20T18:47:27Z</time></trkpt>
<trkpt lat="46.64489100" lon="7.20472000"><ele></ele><time>2014-4-20T18:47:30Z</time></trkpt>
<trkpt lat="46.64495000" lon="7.20482800"><ele></ele><time>2014-4-20T18:47:33Z</time></trkpt>
<trkpt lat="46.64509100" lon="7.20496600"><ele></ele><time>2014-4-20T18:47:36Z</time></trkpt>
<trkpt lat="46.64517900" lon="7.20512700"><ele></ele><time>2014-4-20T18:47:39Z</time></trkpt>
<trkpt lat="46.64523100" lon="7.20535600"><ele></ele><time>2014-4-20T18:47:42Z</time></trkpt>
<trkpt lat="46.64522900" lon="7.20538600"><ele></ele><time>2014-4-20T18:47:45Z</time></trkpt>
<trkpt lat="46.64524100" lon="7.20547200"><ele></ele><time>2014-4-20T18:47:48Z</time></trkpt>
<trkpt lat="46.64533400" lon="7.20550600"><ele></ele><time>2014-4-20T18:47:51Z</time></trkpt>
<trkpt lat="46.64536700" lon="7.20541300"><ele></ele><time>2014-4-20T18:47:54Z</time></trkpt>
<trkpt lat="46.64536700" lon="7.20514300"><ele></ele><time>2014-4-20T18:47:57Z</time></trkpt>
<trkpt lat="46.64536200" lon="7.20486500"><ele></ele><time>2014-4-20T18:48:0Z</time></trkpt>
<trkpt lat="46.64533600" lon="7.20458400"><ele></ele><time>2014-4-20T18:48:3Z</time></trkpt>
<trkpt lat="46.64530600" lon="7.20436900"><ele></ele><time>2014-4-20T18:48:6Z</time></trkpt>
<trkpt lat="46.64532200" lon="7.20418400"><ele></ele><time>2014-4-20T18:48:9Z</time></trkpt>
<trkpt lat="46.64532700" lon="7.20408000"><ele></ele><time>2014-4-20T18:48:12Z</time></trkpt>
<trkpt lat="46.64531500" lon="7.20383300"><ele></ele><time>2014-4-20T18:48:15Z</time></trkpt>
<trkpt lat="46.64528600" lon="7.20366700"><ele></ele><time>2014-4-20T18:48:18Z</time></trkpt>
<trkpt lat="46.64527600" lon="7.20343000"><ele></ele><time>2014-4-20T18:48:21Z</time></trkpt>
<trkpt lat="46.64528200" lon="7.20337000"><ele></ele><time>2014-4-20T18:48:24Z</time></trkpt>
<trkpt lat="46.64532200" lon="7.20319800"><ele></ele><time>2014-4-20T18:48:27Z</time></trkpt>
<trkpt lat="46.64533700" lon="7.20314500"><ele></ele><time>2014-4-20T18:48:30Z</time></trkpt>
<trkpt lat="46.64536000" lon="7.20290900"><ele></ele><time>2014-4-20T18:48:33Z</time></trkpt>
<trkpt lat="46.64534600" lon="7.20272500"><ele></ele><time>2014-4-20T18:48:36Z</time></trkpt>
<trkpt lat="46.64532600" lon="7.20259200"><ele></ele><time>2014-4-20T18:48:39Z</time></trkpt>
<trkpt lat="46.64531100" lon="7.20246700"><ele></ele><time>2014-4-20T18:48:42Z</time></trkpt>
<trkpt lat="46.64520300" lon="7.20215500"><ele></ele><time>2014-4-20T18:48:45Z</time></trkpt>
<trkpt lat="46.64518400" lon="7.20212500"><ele></ele><time>2014-4-20T18:48:48Z</time></trkpt>
<trkpt lat="46.64510500" lon="7.20197300"><ele></ele><time>2014-4-20T18:48:51Z</time></trkpt>
<trkpt lat="46.64516600" lon="7.20184300"><ele></ele><time>2014-4-20T18:48:54Z</time></trkpt>
<trkpt lat="46.64527300" lon="7.20191000"><ele></ele><time>2014-4-20T18:48:57Z</time></trkpt>
<trkpt lat="46.64531000" lon="7.20195400"><ele></ele><time>2014-4-20T18:49:0Z</time></trkpt>
<trkpt lat="46.64537900" lon="7.20204600"><ele></ele><time>2014-4-20T18:49:3Z</time></trkpt>
<trkpt lat="46.64552500" lon="7.20228700"><ele></ele><time>2014-4-20T18:49:6Z</time></trkpt>
<trkpt lat="46.64565200" lon="7.20251200"><ele></ele><time>2014-4-20T18:49:9Z</time></trkpt>
<trkpt lat="46.64580900" lon="7.20280600"><ele></ele><time>2014-4-20T18:49:12Z</time></trkpt>
<trkpt lat="46.64595800" lon="7.20312900"><ele></ele><time>2014-4-20T18:49:15Z</time></trkpt>
<trkpt lat="46.64610100" lon="7.20341400"><ele></ele><time>2014-4-20T18:49:18Z</time></trkpt>
<trkpt lat="46.64624500" lon="7.20355700"><ele></ele><time>2014-4-20T18:49:21Z</time></trkpt>
<trkpt lat="46.64637200" lon="7.20352000"><ele></ele><time>2014-4-20T18:49:24Z</time></trkpt>
<trkpt lat="46.64658700" lon="7.20348800"><ele></ele><time>2014-4-20T18:49:27Z</time></trkpt>
<trkpt lat="46.64677500" lon="7.20356000"><ele></ele><time>2014-4-20T18:49:30Z</time></trkpt>
<trkpt lat="46.64691700" lon="7.20370700"><ele></ele><time>2014-4-20T18:49:33Z</time></trkpt>
<trkpt lat="46.64707500" lon="7.20384500"><ele></ele><time>2014-4-20T18:49:36Z</time></trkpt>
<trkpt lat="46.64710200" lon="7.20384000"><ele></ele><time>2014-4-20T18:49:39Z</time></trkpt>
<trkpt lat="46.64718900" lon="7.20374500"><ele></ele><time>2014-4-20T18:49:42Z</time></trkpt>
<trkpt lat="46.64721600" lon="7.20346700"><ele></ele><time>2014-4-20T18:49:45Z</time></trkpt>
<trkpt lat="46.64722400" lon="7.20315500"><ele></ele><time>2014-4-20T18:49:48Z</time></trkpt>
<trkpt lat="46.64722300" lon="7.20307800"><ele></ele><time>2014-4-20T18:49:51Z</time></trkpt>
<trkpt lat="46.64720100" lon="7.20292800"><ele></ele><time>2014-4-20T18:49:54Z</time></trkpt>
<trkpt lat="46.64720200" lon="7.20288600"><ele></ele><time>2014-4-20T18:49:57Z</time></trkpt>
<trkpt lat="46.64718900" lon="7.20265100"><ele></ele><time>2014-4-20T18:50:0Z</time></trkpt>
<trkpt lat="46.64717000" lon="7.20246400"><ele></ele><time>2014-4-20T18:50:3Z</time></trkpt>
<trkpt lat="46.64718200" lon="7.20223800"><ele></ele><time>2014-4-20T18:50:6Z</time></trkpt>
<trkpt lat="46.64717900" lon="7.20201500"><ele></ele><time>2014-4-20T18:50:9Z</time></trkpt>
<trkpt lat="46.64719000" lon="7.20192300"><ele></ele><time>2014-4-20T18:50:12Z</time></trkpt>
<trkpt lat="46.64722500" lon="7.20174500"><ele></ele><time>2014-4-20T18:50:15Z</time></trkpt>
<trkpt lat="46.64723700" lon="7.20160600"><ele></ele><time>2014-4-20T18:50:18Z</time></trkpt>
<trkpt lat="46.64725500" lon="7.20147300"><ele></ele><time>2014-4-20T18:50:21Z</time></trkpt>
<trkpt lat="46.64725600" lon="7.20146900"><ele></ele><time>2014-4-20T18:50:24Z</time></trkpt>
<trkpt lat="46.64729400" lon="7.20138100"><ele></ele><time>2014-4-20T18:50:27Z</time></trkpt>
<trkpt lat="46.64726000" lon="7.20117400"><ele></ele><time>2014-4-20T18:50:30Z</time></trkpt>
<trkpt lat="46.64722600" lon="7.20096400"><ele></ele><time>2014-4-20T18:50:33Z</time></trkpt>
<trkpt lat="46.64721000" lon="7.20091000"><ele></ele><time>2014-4-20T18:50:36Z</time></trkpt>
<trkpt lat="46.64715300" lon="7.20078100"><ele></ele><time>2014-4-20T18:50:39Z</time></trkpt>
<trkpt lat="46.64711600" lon="7.20064300"><ele></ele><time>2014-4-20T18:50:42Z</time></trkpt>
<trkpt lat="46.64704400" lon="7.20045400"><ele></ele><time>2014-4-20T18:50:45Z</time></trkpt>
<trkpt lat="46.64702700" lon="7.20037500"><ele></ele><time>2014-4-20T18:50:48Z</time></trkpt>
<trkpt lat="46.64703000" lon="7.20027500"><ele></ele><time>2014-4-20T18:50:51Z</time></trkpt>
<trkpt lat="46.64707700" lon="7.20005800"><ele></ele><time>2014-4-20T18:50:54Z</time></trkpt>
<trkpt lat="46.64713400" lon="7.19986700"><ele></ele><time>2014-4-20T18:50:57Z</time></trkpt>
<trkpt lat="46.64714500" lon="7.19966700"><ele></ele><time>2014-4-20T18:51:0Z</time></trkpt>
<trkpt lat="46.64713800" lon="7.19962800"><ele></ele><time>2014-4-20T18:51:3Z</time></trkpt>
<trkpt lat="46.64706700" lon="7.19937100"><ele></ele><time>2014-4-20T18:51:6Z</time></trkpt>
<trkpt lat="46.64706000" lon="7.19929900"><ele></ele><time>2014-4-20T18:51:9Z</time></trkpt>
<trkpt lat="46.64708300" lon="7.19916900"><ele></ele><time>2014-4-20T18:51:12Z</time></trkpt>
<trkpt lat="46.64715600" lon="7.19898500"><ele></ele><time>2014-4-20T18:51:15Z</time></trkpt>
<trkpt lat="46.64717800" lon="7.19893100"><ele></ele><time>2014-4-20T18:51:18Z</time></trkpt>
<trkpt lat="46.64727600" lon="7.19877900"><ele></ele><time>2014-4-20T18:51:21Z</time></trkpt>
<trkpt lat="46.64728800" lon="7.19876000"><ele></ele><time>2014-4-20T18:51:24Z</time></trkpt>
<trkpt lat="46.64734600" lon="7.19864900"><ele></ele><time>2014-4-20T18:51:27Z</time></trkpt>
<trkpt lat="46.64746300" lon="7.19849300"><ele></ele><time>2014-4-20T18:51:30Z</time></trkpt>
<trkpt lat="46.64767800" lon="7.19836400"><ele></ele><time>2014-4-20T18:51:33Z</time></trkpt>
<trkpt lat="46.64773300" lon="7.19827500"><ele></ele><time>2014-4-20T18:51:36Z</time></trkpt>
<trkpt lat="46.64773300" lon="7.19818800"><ele></ele><time>2014-4-20T18:51:39Z</time></trkpt>
<trkpt lat="46.64761800" lon="7.19797000"><ele></ele><time>2014-4-20T18:51:42Z</time></trkpt>
<trkpt lat="46.64747000" lon="7.19783200"><ele></ele><time>2014-4-20T18:51:45Z</time></trkpt>
<trkpt lat="46.64739800" lon="7.19775000"><ele></ele><time>2014-4-20T18:51:48Z</time></trkpt>
<trkpt lat="46.64739500" lon="7.19774900"><ele></ele><time>2014-4-20T18:51:51Z</time></trkpt>
<trkpt lat="46.64729700" lon="7.19774500"><ele></ele><time>2014-4-20T18:51:54Z</time></trkpt>
<trkpt lat="46.64723700" lon="7.19767700"><ele></ele><time>2014-4-20T18:51:57Z</time></trkpt>
<trkpt lat="46.64705700" lon="7.19744300"><ele></ele><time>2014-4-20T18:52:0Z</time></trkpt>
<trkpt lat="46.64697200" lon="7.19727500"><ele></ele><time>2014-4-20T18:52:3Z</time></trkpt>
<trkpt lat="46.64685400" lon="7.19687200"><ele></ele><time>2014-4-20T18:52:6Z</time></trkpt>
<trkpt lat="46.64669500" lon="7.19630000"><ele></ele><time>2014-4-20T18:52:9Z</time></trkpt>
<trkpt lat="46.64667900" lon="7.19623100"><ele></ele><time>2014-4-20T18:52:12Z</time></trkpt>
<trkpt lat="46.64652700" lon="7.19589400"><ele></ele><time>2014-4-20T18:52:15Z</time></trkpt>
<trkpt lat="46.64642200" lon="7.19580700"><ele></ele><time>2014-4-20T18:52:18Z</time></trkpt>
<trkpt lat="46.64625900" lon="7.19572900"><ele></ele><time>2014-4-20T18:52:21Z</time></trkpt>
<trkpt lat="46.64618600" lon="7.19566400"><ele></ele><time>2014-4-20T18:52:24Z</time></trkpt>
<trkpt lat="46.64610600" lon="7.19556100"><ele></ele><time>2014-4-20T18:52:27Z</time></trkpt>
<trkpt lat="46.64602400" lon="7.19536500"><ele></ele><time>2014-4-20T18:52:30Z</time></trkpt>
<trkpt lat="46.64601000" lon="7.19529300"><ele></ele><time>2014-4-20T18:52:33Z</time></trkpt>
<trkpt lat="46.64602100" lon="7.19529800"><ele></ele><time>2014-4-20T18:52:36Z</time></trkpt>
<trkpt lat="46.64602400" lon="7.19523600"><ele></ele><time>2014-4-20T18:52:39Z</time></trkpt>
<trkpt lat="46.64602100" lon="7.19520700"><ele></ele><time>2014-4-20T18:52:42Z</time></trkpt>
<trkpt lat="46.64598000" lon="7.19497900"><ele></ele><time>2014-4-20T18:52:45Z</time></trkpt>
<trkpt lat="46.64593300" lon="7.19469500"><ele></ele><time>2014-4-20T18:52:48Z</time></trkpt>
<trkpt lat="46.64579900" lon="7.19426500"><ele></ele><time>2014-4-20T18:52:51Z</time></trkpt>
<trkpt lat="46.64568400" lon="7.19399400"><ele></ele><time>2014-4-20T18:52:54Z</time></trkpt>
<trkpt lat="46.64564000" lon="7.19378700"><ele></ele><time>2014-4-20T18:52:57Z</time></trkpt>
<trkpt lat="46.64558100" lon="7.19356400"><ele></ele><time>2014-4-20T18:53:0Z</time></trkpt>
<trkpt lat="46.64549600" lon="7.19327100"><ele></ele><time>2014-4-20T18:53:3Z</time></trkpt>
<trkpt lat="46.64539100" lon="7.19286900"><ele></ele><time>2014-4-20T18:53:6Z</time></trkpt>
<trkpt lat="46.64535900" lon="7.19277400"><ele></ele><time>2014-4-20T18:53:9Z</time></trkpt>
<trkpt lat="46.64531400" lon="7.19264900"><ele></ele><time>2014-4-20T18:53:12Z</time></trkpt>
<trkpt lat="46.64520800" lon="7.19253100"><ele></ele><time>2014-4-20T18:53:15Z</time></trkpt>
<trkpt lat="46.64509300" lon="7.19243300"><ele></ele><time>2014-4-20T18:53:18Z</time></trkpt>
<trkpt lat="46.64491500" lon="7.19224900"><ele></ele><time>2014-4-20T18:53:21Z</time></trkpt>
<trkpt lat="46.64474400" lon="7.19205600"><ele></ele><time>2014-4-20T18:53:24Z</time></trkpt>
<trkpt lat="46.64453600" lon="7.19175000"><ele></ele><time>2014-4-20T18:53:27Z</time></trkpt>
<trkpt lat="46.64440300" lon="7.19157700"><ele></ele><time>2014-4-20T18:53:30Z</time></trkpt>
<trkpt lat="46.64430800" lon="7.19134100"><ele></ele><time>2014-4-20T18:53:33Z</time></trkpt>
<trkpt lat="46.64426000" lon="7.19109300"><ele></ele><time>2014-4-20T18:53:36Z</time></trkpt>
<trkpt lat="46.64416300" lon="7.19085200"><ele></ele><time>2014-4-20T18:53:39Z</time></trkpt>
<trkpt lat="46.64405900" lon="7.19058400"><ele></ele><time>2014-4-20T18:53:42Z</time></trkpt>
<trkpt lat="46.64398100" lon="7.19040600"><ele></ele><time>2014-4-20T18:53:45Z</time></trkpt>
<trkpt lat="46.64381100" lon="7.19001900"><ele></ele><time>2014-4-20T18:53:48Z</time></trkpt>
<trkpt lat="46.64375200" lon="7.18986600"><ele></ele><time>2014-4-20T18:53:51Z</time></trkpt>
<trkpt lat="46.64368500" lon="7.18973300"><ele></ele><time>2014-4-20T18:53:54Z</time></trkpt>
<trkpt lat="46.64354200" lon="7.18956300"><ele></ele><time>2014-4-20T18:53:57Z</time></trkpt>
<trkpt lat="46.64332000" lon="7.18940700"><ele></ele><time>2014-4-20T18:54:0Z</time></trkpt>
<trkpt lat="46.64327200" lon="7.18937100"><ele></ele><time>2014-4-20T18:54:3Z</time></trkpt>
<trkpt lat="46.64307700" lon="7.18906000"><ele></ele><time>2014-4-20T18:54:6Z</time></trkpt>
<trkpt lat="46.64289200" lon="7.18889700"><ele></ele><time>2014-4-20T18:54:9Z</time></trkpt>
<trkpt lat="46.64281800" lon="7.18887100"><ele></ele><time>2014-4-20T18:54:12Z</time></trkpt>
<trkpt lat="46.64259600" lon="7.18883700"><ele></ele><time>2014-4-20T18:54:15Z</time></trkpt>
<trkpt lat="46.64236200" lon="7.18860200"><ele></ele><time>2014-4-20T18:54:18Z</time></trkpt>
<trkpt lat="46.64221500" lon="7.18828700"><ele></ele><time>2014-4-20T18:54:21Z</time></trkpt>
<trkpt lat="46.64216300" lon="7.18814100"><ele></ele><time>2014-4-20T18:54:24Z</time></trkpt>
<trkpt lat="46.64214600" lon="7.18806300"><ele></ele><time>2014-4-20T18:54:27Z</time></trkpt>
<trkpt lat="46.64213500" lon="7.18799000"><ele></ele><time>2014-4-20T18:54:30Z</time></trkpt>
<trkpt lat="46.64212000" lon="7.18785200"><ele></ele><time>2014-4-20T18:54:33Z</time></trkpt>
<trkpt lat="46.64209300" lon="7.18747600"><ele></ele><time>2014-4-20T18:54:36Z</time></trkpt>
<trkpt lat="46.64200400" lon="7.18719600"><ele></ele><time>2014-4-20T18:54:39Z</time></trkpt>
<trkpt lat="46.64175900" lon="7.18677900"><ele></ele><time>2014-4-20T18:54:42Z</time></trkpt>
<trkpt lat="46.64160800" lon="7.18647200"><ele></ele><time>2014-4-20T18:54:45Z</time></trkpt>
<trkpt lat="46.64154600" lon="7.18630900"><ele></ele><time>2014-4-20T18:54:48Z</time></trkpt>
<trkpt lat="46.64147300" lon="7.18605500"><ele></ele><time>2014-4-20T18:54:51Z</time></trkpt>
<trkpt lat="46.64141300" lon="7.18563400"><ele></ele><time>2014-4-20T18:54:54Z</time></trkpt>
<trkpt lat="46.64135300" lon="7.18521600"><ele></ele><time>2014-4-20T18:54:57Z</time></trkpt>
<trkpt lat="46.64129200" lon="7.18486200"><ele></ele><time>2014-4-20T18:55:0Z</time></trkpt>
<trkpt lat="46.64117600" lon="7.18436500"><ele></ele><time>2014-4-20T18:55:3Z</time></trkpt>
<trkpt lat="46.64108400" lon="7.18396500"><ele></ele><time>2014-4-20T18:55:6Z</time></trkpt>
<trkpt lat="46.64098300" lon="7.18370500"><ele></ele><time>2014-4-20T18:55:9Z</time></trkpt>
<trkpt lat="46.64085100" lon="7.18347300"><ele></ele><time>2014-4-20T18:55:12Z</time></trkpt>
<trkpt lat="46.64060500" lon="7.18314800"><ele></ele><time>2014-4-20T18:55:15Z</time></trkpt>
<trkpt lat="46.64040700" lon="7.18297200"><ele></ele><time>2014-4-20T18:55:18Z</time></trkpt>
<trkpt lat="46.64016800" lon="7.18277700"><ele></ele><time>2014-4-20T18:55:21Z</time></trkpt>
<trkpt lat="46.64010700" lon="7.18270600"><ele></ele><time>2014-4-20T18:55:24Z</time></trkpt>
<trkpt lat="46.64002000" lon="7.18257600"><ele></ele><time>2014-4-20T18:55:27Z</time></trkpt>
<trkpt lat="46.63978200" lon="7.18215700"><ele></ele><time>2014-4-20T18:55:30Z</time></trkpt>
<trkpt lat="46.63952300" lon="7.18190400"><ele></ele><time>2014-4-20T18:55:33Z</time></trkpt>
<trkpt lat="46.63936800" lon="7.18174900"><ele></ele><time>2014-4-20T18:55:36Z</time></trkpt>
<trkpt lat="46.63921700" lon="7.18139500"><ele></ele><time>2014-4-20T18:55:39Z</time></trkpt>
<trkpt lat="46.63918600" lon="7.18121100"><ele></ele><time>2014-4-20T18:55:42Z</time></trkpt>
<trkpt lat="46.63910400" lon="7.18073700"><ele></ele><time>2014-4-20T18:55:45Z</time></trkpt>
<trkpt lat="46.63906200" lon="7.18058600"><ele></ele><time>2014-4-20T18:55:48Z</time></trkpt>
<trkpt lat="46.63880500" lon="7.18015100"><ele></ele><time>2014-4-20T18:55:51Z</time></trkpt>
<trkpt lat="46.63855100" lon="7.17973900"><ele></ele><time>2014-4-20T18:55:54Z</time></trkpt>
<trkpt lat="46.63839800" lon="7.17947300"><ele></ele><time>2014-4-20T18:55:57Z</time></trkpt>
<trkpt lat="46.63835900" lon="7.17940200"><ele></ele><time>2014-4-20T18:56:0Z</time></trkpt>
<trkpt lat="46.63825600" lon="7.17916800"><ele></ele><time>2014-4-20T18:56:3Z</time></trkpt>
<trkpt lat="46.63803400" lon="7.17883400"><ele></ele><time>2014-4-20T18:56:6Z</time></trkpt>
<trkpt lat="46.63792100" lon="7.17872800"><ele></ele><time>2014-4-20T18:56:9Z</time></trkpt>
<trkpt lat="46.63746800" lon="7.17820200"><ele></ele><time>2014-4-20T18:56:12Z</time></trkpt>
<trkpt lat="46.63713700" lon="7.17780400"><ele></ele><time>2014-4-20T18:56:15Z</time></trkpt>
<trkpt lat="46.63690300" lon="7.17751300"><ele></ele><time>2014-4-20T18:56:18Z</time></trkpt>
<trkpt lat="46.63664100" lon="7.17712500"><ele></ele><time>2014-4-20T18:56:21Z</time></trkpt>
<trkpt lat="46.63638000" lon="7.17674200"><ele></ele><time>2014-4-20T18:56:24Z</time></trkpt>
<trkpt lat="46.63634000" lon="7.17669400"><ele></ele><time>2014-4-20T18:56:27Z</time></trkpt>
<trkpt lat="46.63620500" lon="7.17657200"><ele></ele><time>2014-4-20T18:56:30Z</time></trkpt>
<trkpt lat="46.63580600" lon="7.17633900"><ele></ele><time>2014-4-20T18:56:33Z</time></trkpt>
<trkpt lat="46.63541900" lon="7.17596100"><ele></ele><time>2014-4-20T18:56:36Z</time></trkpt>
<trkpt lat="46.63490200" lon="7.17529300"><ele></ele><time>2014-4-20T18:56:39Z</time></trkpt>
<trkpt lat="46.63456100" lon="7.17472600"><ele></ele><time>2014-4-20T18:56:42Z</time></trkpt>
<trkpt lat="46.63413300" lon="7.17394000"><ele></ele><time>2014-4-20T18:56:45Z</time></trkpt>
<trkpt lat="46.63384300" lon="7.17332000"><ele></ele><time>2014-4-20T18:56:48Z</time></trkpt>
<trkpt lat="46.63374700" lon="7.17308400"><ele></ele><time>2014-4-20T18:56:51Z</time></trkpt>
<trkpt lat="46.63356200" lon="7.17255800"><ele></ele><time>2014-4-20T18:56:54Z</time></trkpt>
<trkpt lat="46.63328300" lon="7.17207600"><ele></ele><time>2014-4-20T18:56:57Z</time></trkpt>
<trkpt lat="46.63312200" lon="7.17183500"><ele></ele><time>2014-4-20T18:57:0Z</time></trkpt>
<trkpt lat="46.63289600" lon="7.17123500"><ele></ele><time>2014-4-20T18:57:3Z</time></trkpt>
<trkpt lat="46.63278100" lon="7.17093200"><ele></ele><time>2014-4-20T18:57:6Z</time></trkpt>
<trkpt lat="46.63240300" lon="7.17027600"><ele></ele><time>2014-4-20T18:57:9Z</time></trkpt>
<trkpt lat="46.63192900" lon="7.16950000"><ele></ele><time>2014-4-20T18:57:12Z</time></trkpt>
<trkpt lat="46.63185400" lon="7.16936700"><ele></ele><time>2014-4-20T18:57:15Z</time></trkpt>
<trkpt lat="46.63168200" lon="7.16913500"><ele></ele><time>2014-4-20T18:57:18Z</time></trkpt>
<trkpt lat="46.63113300" lon="7.16850700"><ele></ele><time>2014-4-20T18:57:21Z</time></trkpt>
<trkpt lat="46.63104400" lon="7.16840100"><ele></ele><time>2014-4-20T18:57:24Z</time></trkpt>
<trkpt lat="46.63053700" lon="7.16804400"><ele></ele><time>2014-4-20T18:57:27Z</time></trkpt>
<trkpt lat="46.63032800" lon="7.16793900"><ele></ele><time>2014-4-20T18:57:30Z</time></trkpt>
<trkpt lat="46.62984900" lon="7.16763300"><ele></ele><time>2014-4-20T18:57:33Z</time></trkpt>
<trkpt lat="46.62942700" lon="7.16727700"><ele></ele><time>2014-4-20T18:57:36Z</time></trkpt>
<trkpt lat="46.62934600" lon="7.16720200"><ele></ele><time>2014-4-20T18:57:39Z</time></trkpt>
<trkpt lat="46.62889200" lon="7.16698200"><ele></ele><time>2014-4-20T18:57:42Z</time></trkpt>
<trkpt lat="46.62858700" lon="7.16690500"><ele></ele><time>2014-4-20T18:57:45Z</time></trkpt>
<trkpt lat="46.62852300" lon="7.16689400"><ele></ele><time>2014-4-20T18:57:48Z</time></trkpt>
<trkpt lat="46.62824400" lon="7.16691200"><ele></ele><time>2014-4-20T18:57:51Z</time></trkpt>
<trkpt lat="46.62814400" lon="7.16693800"><ele></ele><time>2014-4-20T18:57:54Z</time></trkpt>
<trkpt lat="46.62798500" lon="7.16689100"><ele></ele><time>2014-4-20T18:57:57Z</time></trkpt>
<trkpt lat="46.62795000" lon="7.16676000"><ele></ele><time>2014-4-20T18:58:0Z</time></trkpt>
<trkpt lat="46.62787400" lon="7.16669700"><ele></ele><time>2014-4-20T18:58:3Z</time></trkpt>
<trkpt lat="46.62781600" lon="7.16663500"><ele></ele><time>2014-4-20T18:58:6Z</time></trkpt>
<trkpt lat="46.62766700" lon="7.16650900"><ele></ele><time>2014-4-20T18:58:9Z</time></trkpt>
<trkpt lat="46.62753400" lon="7.16637100"><ele></ele><time>2014-4-20T18:58:12Z</time></trkpt>
<trkpt lat="46.62715800" lon="7.16606400"><ele></ele><time>2014-4-20T18:58:15Z</time></trkpt>
<trkpt lat="46.62700300" lon="7.16595900"><ele></ele><time>2014-4-20T18:58:18Z</time></trkpt>
<trkpt lat="46.62655600" lon="7.16568100"><ele></ele><time>2014-4-20T18:58:21Z</time></trkpt>
<trkpt lat="46.62599500" lon="7.16536900"><ele></ele><time>2014-4-20T18:58:24Z</time></trkpt>
<trkpt lat="46.62563100" lon="7.16507800"><ele></ele><time>2014-4-20T18:58:27Z</time></trkpt>
<trkpt lat="46.62544400" lon="7.16490300"><ele></ele><time>2014-4-20T18:58:30Z</time></trkpt>
<trkpt lat="46.62522400" lon="7.16470300"><ele></ele><time>2014-4-20T18:58:33Z</time></trkpt>
<trkpt lat="46.62506100" lon="7.16457800"><ele></ele><time>2014-4-20T18:58:36Z</time></trkpt>
<trkpt lat="46.62500500" lon="7.16453500"><ele></ele><time>2014-4-20T18:58:39Z</time></trkpt>
<trkpt lat="46.62494900" lon="7.16449500"><ele></ele><time>2014-4-20T18:58:42Z</time></trkpt>
<trkpt lat="46.62478400" lon="7.16439700"><ele></ele><time>2014-4-20T18:58:45Z</time></trkpt>
<trkpt lat="46.62453000" lon="7.16424300"><ele></ele><time>2014-4-20T18:58:48Z</time></trkpt>
<trkpt lat="46.62417100" lon="7.16405000"><ele></ele><time>2014-4-20T18:58:51Z</time></trkpt>
<trkpt lat="46.62379700" lon="7.16380600"><ele></ele><time>2014-4-20T18:58:54Z</time></trkpt>
<trkpt lat="46.62335900" lon="7.16343700"><ele></ele><time>2014-4-20T18:58:57Z</time></trkpt>
<trkpt lat="46.62281400" lon="7.16283400"><ele></ele><time>2014-4-20T18:59:0Z</time></trkpt>
<trkpt lat="46.62242600" lon="7.16238400"><ele></ele><time>2014-4-20T18:59:3Z</time></trkpt>
<trkpt lat="46.62204500" lon="7.16194300"><ele></ele><time>2014-4-20T18:59:6Z</time></trkpt>
<trkpt lat="46.62187900" lon="7.16174300"><ele></ele><time>2014-4-20T18:59:9Z</time></trkpt>
<trkpt lat="46.62151800" lon="7.16123800"><ele></ele><time>2014-4-20T18:59:12Z</time></trkpt>
<trkpt lat="46.62131800" lon="7.16087500"><ele></ele><time>2014-4-20T18:59:15Z</time></trkpt>
<trkpt lat="46.62127400" lon="7.16077700"><ele></ele><time>2014-4-20T18:59:18Z</time></trkpt>
<trkpt lat="46.62107500" lon="7.16023600"><ele></ele><time>2014-4-20T18:59:21Z</time></trkpt>
<trkpt lat="46.62095200" lon="7.15968200"><ele></ele><time>2014-4-20T18:59:24Z</time></trkpt>
<trkpt lat="46.62093700" lon="7.15959600"><ele></ele><time>2014-4-20T18:59:27Z</time></trkpt>
<trkpt lat="46.62083600" lon="7.15944000"><ele></ele><time>2014-4-20T18:59:30Z</time></trkpt>
<trkpt lat="46.62078300" lon="7.15935000"><ele></ele><time>2014-4-20T18:59:33Z</time></trkpt>
<trkpt lat="46.62078500" lon="7.15935100"><ele></ele><time>2014-4-20T18:59:36Z</time></trkpt>
<trkpt lat="46.62091600" lon="7.15925500"><ele></ele><time>2014-4-20T18:59:39Z</time></trkpt>
<trkpt lat="46.62097400" lon="7.15918200"><ele></ele><time>2014-4-20T18:59:42Z</time></trkpt>
<trkpt lat="46.62111400" lon="7.15906900"><ele></ele><time>2014-4-20T18:59:45Z</time></trkpt>
<trkpt lat="46.62134300" lon="7.15892100"><ele></ele><time>2014-4-20T18:59:48Z</time></trkpt>
<trkpt lat="46.62143100" lon="7.15887400"><ele></ele><time>2014-4-20T18:59:51Z</time></trkpt>
<trkpt lat="46.62162100" lon="7.15883500"><ele></ele><time>2014-4-20T18:59:54Z</time></trkpt>
<trkpt lat="46.62174100" lon="7.15881700"><ele></ele><time>2014-4-20T18:59:57Z</time></trkpt>
<trkpt lat="46.62178500" lon="7.15875400"><ele></ele><time>2014-4-20T19:0:0Z</time></trkpt>
<trkpt lat="46.62178900" lon="7.15874700"><ele></ele><time>2014-4-20T19:0:3Z</time></trkpt>
</trkseg></trk></gpx>